<?xml version="1.0" encoding="UTF-8" standalone="no" ?><gpx xmlns="http://www.topografix.com/GPX/1/1" xmlns:gpxx="http://www.garmin.com/xmlschemas/GpxExtensions/v3" xmlns:wptx1="http://www.garmin.com/xmlschemas/WaypointExtension/v1" xmlns:gpxtpx="http://www.garmin.com/xmlschemas/TrackPointExtension/v1" creator="Dakota 20" version="1.1" xmlns:xsi="http://www.w3.org/2001/XMLSchema-instance" xsi:schemaLocation="http://www.topografix.com/GPX/1/1 http://www.topografix.com/GPX/1/1/gpx.xsd http://www.garmin.com/xmlschemas/GpxExtensions/v3 http://www8.garmin.com/xmlschemas/GpxExtensionsv3.xsd http://www.garmin.com/xmlschemas/WaypointExtension/v1 http://www8.garmin.com/xmlschemas/WaypointExtensionv1.xsd http://www.garmin.com/xmlschemas/TrackPointExtension/v1 http://www.garmin.com/xmlschemas/TrackPointExtensionv1.xsd"><metadata><link href="http://www.garmin.com"><text>Garmin International</text></link><time>2014-05-07T19:42:22Z</time></metadata><trk><name>Current Track: 07 MAY 2014 09:58</name><extensions><gpxx:TrackExtension><gpxx:DisplayColor>Cyan</gpxx:DisplayColor></gpxx:TrackExtension></extensions><trkseg><trkpt lat="51.9733257685" lon="-2.2491224483"><ele>22.73</ele><time>2014-05-07T08:58:37Z</time></trkpt><trkpt lat="51.9733304624" lon="-2.2491095401"><ele>22.25</ele><time>2014-05-07T08:58:43Z</time></trkpt><trkpt lat="51.9733976014" lon="-2.2489429917"><ele>21.29</ele><time>2014-05-07T08:58:56Z</time></trkpt><trkpt lat="51.9734254293" lon="-2.2488184366"><ele>21.77</ele><time>2014-05-07T08:59:08Z</time></trkpt><trkpt lat="51.9734330568" lon="-2.2488014214"><ele>22.25</ele><time>2014-05-07T08:59:09Z</time></trkpt><trkpt lat="51.9734758046" lon="-2.2487507109"><ele>21.77</ele><time>2014-05-07T08:59:13Z</time></trkpt><trkpt lat="51.9734914787" lon="-2.2487251461"><ele>21.77</ele><time>2014-05-07T08:59:15Z</time></trkpt><trkpt lat="51.9735095836" lon="-2.2487170994"><ele>21.29</ele><time>2014-05-07T08:59:17Z</time></trkpt><trkpt lat="51.9735653233" lon="-2.2486516368"><ele>21.29</ele><time>2014-05-07T08:59:23Z</time></trkpt><trkpt lat="51.9735953305" lon="-2.2486279160"><ele>20.81</ele><time>2014-05-07T08:59:26Z</time></trkpt><trkpt lat="51.9736806583" lon="-2.2485731822"><ele>21.77</ele><time>2014-05-07T08:59:34Z</time></trkpt><trkpt lat="51.9737679977" lon="-2.2482817434"><ele>20.81</ele><time>2014-05-07T08:59:49Z</time></trkpt><trkpt lat="51.9737731945" lon="-2.2482718527"><ele>20.81</ele><time>2014-05-07T08:59:50Z</time></trkpt><trkpt lat="51.9739012700" lon="-2.2481783107"><ele>20.81</ele><time>2014-05-07T09:00:06Z</time></trkpt><trkpt lat="51.9740169402" lon="-2.2480190545"><ele>20.81</ele><time>2014-05-07T09:00:23Z</time></trkpt><trkpt lat="51.9740658067" lon="-2.2479846049"><ele>20.32</ele><time>2014-05-07T09:00:29Z</time></trkpt><trkpt lat="51.9741478655" lon="-2.2477221675"><ele>21.29</ele><time>2014-05-07T09:00:44Z</time></trkpt><trkpt lat="51.9742391445" lon="-2.2478134464"><ele>19.84</ele><time>2014-05-07T09:00:58Z</time></trkpt><trkpt lat="51.9742923696" lon="-2.2478916496"><ele>19.84</ele><time>2014-05-07T09:01:12Z</time></trkpt><trkpt lat="51.9743935391" lon="-2.2480470501"><ele>19.84</ele><time>2014-05-07T09:01:28Z</time></trkpt><trkpt lat="51.9744364545" lon="-2.2480829246"><ele>19.84</ele><time>2014-05-07T09:01:40Z</time></trkpt><trkpt lat="51.9744764362" lon="-2.2481084056"><ele>19.36</ele><time>2014-05-07T09:01:55Z</time></trkpt><trkpt lat="51.9745160826" lon="-2.2481413465"><ele>19.84</ele><time>2014-05-07T09:02:10Z</time></trkpt><trkpt lat="51.9745501969" lon="-2.2481696773"><ele>19.36</ele><time>2014-05-07T09:02:14Z</time></trkpt><trkpt lat="51.9746601675" lon="-2.2482070606"><ele>18.88</ele><time>2014-05-07T09:02:31Z</time></trkpt><trkpt lat="51.9747793581" lon="-2.2482601181"><ele>19.36</ele><time>2014-05-07T09:02:43Z</time></trkpt><trkpt lat="51.9747796934" lon="-2.2482699249"><ele>18.40</ele><time>2014-05-07T09:03:14Z</time></trkpt><trkpt lat="51.9747829624" lon="-2.2482639737"><ele>18.40</ele><time>2014-05-07T09:03:17Z</time></trkpt><trkpt lat="51.9748408813" lon="-2.2482800670"><ele>18.88</ele><time>2014-05-07T09:03:21Z</time></trkpt><trkpt lat="51.9749852177" lon="-2.2483163606"><ele>18.40</ele><time>2014-05-07T09:03:34Z</time></trkpt><trkpt lat="51.9751396123" lon="-2.2483421769"><ele>18.40</ele><time>2014-05-07T09:03:50Z</time></trkpt><trkpt lat="51.9753078371" lon="-2.2483723518"><ele>18.88</ele><time>2014-05-07T09:04:06Z</time></trkpt><trkpt lat="51.9754914008" lon="-2.2484409995"><ele>18.40</ele><time>2014-05-07T09:04:22Z</time></trkpt><trkpt lat="51.9756972603" lon="-2.2485796362"><ele>18.40</ele><time>2014-05-07T09:04:38Z</time></trkpt><trkpt lat="51.9758193847" lon="-2.2487492859"><ele>18.88</ele><time>2014-05-07T09:04:54Z</time></trkpt><trkpt lat="51.9758259226" lon="-2.2487603500"><ele>18.40</ele><time>2014-05-07T09:05:19Z</time></trkpt><trkpt lat="51.9758418482" lon="-2.2487724200"><ele>18.88</ele><time>2014-05-07T09:05:39Z</time></trkpt><trkpt lat="51.9758541696" lon="-2.2487729229"><ele>19.36</ele><time>2014-05-07T09:06:05Z</time></trkpt><trkpt lat="51.9758833386" lon="-2.2487685643"><ele>18.88</ele><time>2014-05-07T09:06:26Z</time></trkpt><trkpt lat="51.9759262539" lon="-2.2487378027"><ele>18.88</ele><time>2014-05-07T09:06:45Z</time></trkpt><trkpt lat="51.9760638010" lon="-2.2489353642"><ele>19.36</ele><time>2014-05-07T09:07:01Z</time></trkpt><trkpt lat="51.9761059619" lon="-2.2490755934"><ele>19.84</ele><time>2014-05-07T09:07:18Z</time></trkpt><trkpt lat="51.9762036949" lon="-2.2491985559"><ele>19.36</ele><time>2014-05-07T09:07:34Z</time></trkpt><trkpt lat="51.9764343649" lon="-2.2494188324"><ele>18.40</ele><time>2014-05-07T09:07:51Z</time></trkpt><trkpt lat="51.9766297471" lon="-2.2495665215"><ele>18.40</ele><time>2014-05-07T09:08:09Z</time></trkpt><trkpt lat="51.9766742550" lon="-2.2495278809"><ele>18.88</ele><time>2014-05-07T09:08:14Z</time></trkpt><trkpt lat="51.9768515322" lon="-2.2494074330"><ele>18.40</ele><time>2014-05-07T09:08:29Z</time></trkpt><trkpt lat="51.9770020712" lon="-2.2492957860"><ele>18.88</ele><time>2014-05-07T09:08:42Z</time></trkpt><trkpt lat="51.9772534445" lon="-2.2491922695"><ele>19.36</ele><time>2014-05-07T09:09:01Z</time></trkpt><trkpt lat="51.9774733856" lon="-2.2490809578"><ele>19.84</ele><time>2014-05-07T09:09:20Z</time></trkpt><trkpt lat="51.9776601344" lon="-2.2489335202"><ele>19.84</ele><time>2014-05-07T09:09:38Z</time></trkpt><trkpt lat="51.9778157864" lon="-2.2487495374"><ele>20.32</ele><time>2014-05-07T09:09:55Z</time></trkpt><trkpt lat="51.9780048821" lon="-2.2484710906"><ele>20.32</ele><time>2014-05-07T09:10:16Z</time></trkpt><trkpt lat="51.9781745318" lon="-2.2483649757"><ele>20.81</ele><time>2014-05-07T09:10:31Z</time></trkpt><trkpt lat="51.9783675671" lon="-2.2482482158"><ele>20.81</ele><time>2014-05-07T09:10:51Z</time></trkpt><trkpt lat="51.9785230514" lon="-2.2480414342"><ele>21.77</ele><time>2014-05-07T09:11:11Z</time></trkpt><trkpt lat="51.9785787910" lon="-2.2479702719"><ele>21.77</ele><time>2014-05-07T09:11:26Z</time></trkpt><trkpt lat="51.9786264002" lon="-2.2479349002"><ele>21.77</ele><time>2014-05-07T09:11:32Z</time></trkpt><trkpt lat="51.9787670486" lon="-2.2478160448"><ele>22.25</ele><time>2014-05-07T09:11:50Z</time></trkpt><trkpt lat="51.9787823036" lon="-2.2478066571"><ele>22.25</ele><time>2014-05-07T09:11:52Z</time></trkpt><trkpt lat="51.9789372850" lon="-2.2476825211"><ele>22.73</ele><time>2014-05-07T09:12:07Z</time></trkpt><trkpt lat="51.9790527876" lon="-2.2476080898"><ele>23.69</ele><time>2014-05-07T09:12:22Z</time></trkpt><trkpt lat="51.9791688770" lon="-2.2475577146"><ele>23.21</ele><time>2014-05-07T09:12:41Z</time></trkpt><trkpt lat="51.9792114571" lon="-2.2475536913"><ele>24.17</ele><time>2014-05-07T09:13:00Z</time></trkpt><trkpt lat="51.9792465772" lon="-2.2476118617"><ele>24.17</ele><time>2014-05-07T09:13:17Z</time></trkpt><trkpt lat="51.9792496786" lon="-2.2476432938"><ele>24.17</ele><time>2014-05-07T09:13:43Z</time></trkpt><trkpt lat="51.9793259539" lon="-2.2475349158"><ele>24.17</ele><time>2014-05-07T09:13:56Z</time></trkpt><trkpt lat="51.9794862159" lon="-2.2474390268"><ele>25.13</ele><time>2014-05-07T09:14:14Z</time></trkpt><trkpt lat="51.9795775786" lon="-2.2474359255"><ele>25.13</ele><time>2014-05-07T09:14:22Z</time></trkpt><trkpt lat="51.9797453843" lon="-2.2474100254"><ele>26.09</ele><time>2014-05-07T09:14:38Z</time></trkpt><trkpt lat="51.9798391778" lon="-2.2474391107"><ele>25.61</ele><time>2014-05-07T09:14:53Z</time></trkpt><trkpt lat="51.9798677601" lon="-2.2474665195"><ele>26.09</ele><time>2014-05-07T09:15:12Z</time></trkpt><trkpt lat="51.9800425228" lon="-2.2475136258"><ele>26.57</ele><time>2014-05-07T09:15:33Z</time></trkpt><trkpt lat="51.9802603684" lon="-2.2475610673"><ele>27.53</ele><time>2014-05-07T09:15:53Z</time></trkpt><trkpt lat="51.9804948103" lon="-2.2475918289"><ele>28.50</ele><time>2014-05-07T09:16:12Z</time></trkpt><trkpt lat="51.9806838222" lon="-2.2476016358"><ele>29.46</ele><time>2014-05-07T09:16:30Z</time></trkpt><trkpt lat="51.9808797073" lon="-2.2476202436"><ele>30.42</ele><time>2014-05-07T09:16:47Z</time></trkpt><trkpt lat="51.9809350278" lon="-2.2476111911"><ele>30.42</ele><time>2014-05-07T09:16:54Z</time></trkpt><trkpt lat="51.9810889196" lon="-2.2476042341"><ele>31.38</ele><time>2014-05-07T09:17:08Z</time></trkpt><trkpt lat="51.9812847208" lon="-2.2475804295"><ele>32.34</ele><time>2014-05-07T09:17:24Z</time></trkpt><trkpt lat="51.9814022351" lon="-2.2475496680"><ele>32.82</ele><time>2014-05-07T09:17:41Z</time></trkpt><trkpt lat="51.9814839587" lon="-2.2475268692"><ele>33.78</ele><time>2014-05-07T09:17:52Z</time></trkpt><trkpt lat="51.9816167280" lon="-2.2475080937"><ele>34.26</ele><time>2014-05-07T09:18:07Z</time></trkpt><trkpt lat="51.9817087613" lon="-2.2474696208"><ele>35.23</ele><time>2014-05-07T09:18:21Z</time></trkpt><trkpt lat="51.9818199053" lon="-2.2474358417"><ele>35.23</ele><time>2014-05-07T09:18:36Z</time></trkpt><trkpt lat="51.9819477294" lon="-2.2474303097"><ele>36.19</ele><time>2014-05-07T09:18:48Z</time></trkpt><trkpt lat="51.9820998609" lon="-2.2474510130"><ele>37.15</ele><time>2014-05-07T09:19:05Z</time></trkpt><trkpt lat="51.9821105059" lon="-2.2475634143"><ele>38.11</ele><time>2014-05-07T09:19:19Z</time></trkpt><trkpt lat="51.9821356516" lon="-2.2475232650"><ele>38.11</ele><time>2014-05-07T09:19:32Z</time></trkpt><trkpt lat="51.9820827618" lon="-2.2477038950"><ele>38.11</ele><time>2014-05-07T09:19:46Z</time></trkpt><trkpt lat="51.9820982683" lon="-2.2477774043"><ele>38.11</ele><time>2014-05-07T09:20:03Z</time></trkpt><trkpt lat="51.9821926486" lon="-2.2477394342"><ele>39.55</ele><time>2014-05-07T09:20:18Z</time></trkpt><trkpt lat="51.9822614640" lon="-2.2477254365"><ele>40.03</ele><time>2014-05-07T09:20:34Z</time></trkpt><trkpt lat="51.9822665770" lon="-2.2477481514"><ele>40.03</ele><time>2014-05-07T09:21:03Z</time></trkpt><trkpt lat="51.9822721090" lon="-2.2477468941"><ele>39.07</ele><time>2014-05-07T09:21:08Z</time></trkpt><trkpt lat="51.9823239930" lon="-2.2476998717"><ele>40.51</ele><time>2014-05-07T09:21:24Z</time></trkpt><trkpt lat="51.9823433552" lon="-2.2476633266"><ele>41.47</ele><time>2014-05-07T09:21:40Z</time></trkpt><trkpt lat="51.9823732786" lon="-2.2477190662"><ele>40.99</ele><time>2014-05-07T09:21:55Z</time></trkpt><trkpt lat="51.9824637193" lon="-2.2477439605"><ele>43.40</ele><time>2014-05-07T09:22:10Z</time></trkpt><trkpt lat="51.9825218897" lon="-2.2477696091"><ele>46.28</ele><time>2014-05-07T09:22:25Z</time></trkpt><trkpt lat="51.9825961534" lon="-2.2477696929"><ele>48.68</ele><time>2014-05-07T09:22:40Z</time></trkpt><trkpt lat="51.9826814812" lon="-2.2477920726"><ele>51.09</ele><time>2014-05-07T09:22:53Z</time></trkpt><trkpt lat="51.9828575850" lon="-2.2478120215"><ele>53.01</ele><time>2014-05-07T09:23:10Z</time></trkpt><trkpt lat="51.9829403982" lon="-2.2477909829"><ele>53.97</ele><time>2014-05-07T09:23:21Z</time></trkpt><trkpt lat="51.9830760173" lon="-2.2477656696"><ele>53.97</ele><time>2014-05-07T09:23:36Z</time></trkpt><trkpt lat="51.9831346907" lon="-2.2477711178"><ele>54.45</ele><time>2014-05-07T09:23:53Z</time></trkpt><trkpt lat="51.9832982216" lon="-2.2477561142"><ele>53.49</ele><time>2014-05-07T09:24:09Z</time></trkpt><trkpt lat="51.9834614173" lon="-2.2477275319"><ele>52.53</ele><time>2014-05-07T09:24:22Z</time></trkpt><trkpt lat="51.9835989643" lon="-2.2477335669"><ele>53.01</ele><time>2014-05-07T09:24:35Z</time></trkpt><trkpt lat="51.9836443942" lon="-2.2477502469"><ele>52.53</ele><time>2014-05-07T09:24:39Z</time></trkpt><trkpt lat="51.9837880600" lon="-2.2477161326"><ele>51.57</ele><time>2014-05-07T09:24:52Z</time></trkpt><trkpt lat="51.9838488288" lon="-2.2477070801"><ele>51.57</ele><time>2014-05-07T09:24:59Z</time></trkpt><trkpt lat="51.9840156287" lon="-2.2477885522"><ele>50.61</ele><time>2014-05-07T09:25:12Z</time></trkpt><trkpt lat="51.9840528443" lon="-2.2478445433"><ele>51.09</ele><time>2014-05-07T09:25:16Z</time></trkpt><trkpt lat="51.9841684308" lon="-2.2479599621"><ele>50.13</ele><time>2014-05-07T09:25:27Z</time></trkpt><trkpt lat="51.9842509925" lon="-2.2480065655"><ele>49.65</ele><time>2014-05-07T09:25:34Z</time></trkpt><trkpt lat="51.9842819218" lon="-2.2480111755"><ele>50.61</ele><time>2014-05-07T09:25:37Z</time></trkpt><trkpt lat="51.9843958318" lon="-2.2478583734"><ele>50.13</ele><time>2014-05-07T09:25:51Z</time></trkpt><trkpt lat="51.9844926428" lon="-2.2478146199"><ele>50.13</ele><time>2014-05-07T09:26:03Z</time></trkpt><trkpt lat="51.9845272601" lon="-2.2476727143"><ele>50.13</ele><time>2014-05-07T09:26:15Z</time></trkpt><trkpt lat="51.9845691696" lon="-2.2475808486"><ele>50.13</ele><time>2014-05-07T09:26:28Z</time></trkpt><trkpt lat="51.9846341293" lon="-2.2475126199"><ele>49.16</ele><time>2014-05-07T09:26:43Z</time></trkpt><trkpt lat="51.9846824929" lon="-2.2474564612"><ele>48.68</ele><time>2014-05-07T09:26:55Z</time></trkpt><trkpt lat="51.9846856780" lon="-2.2474591434"><ele>49.16</ele><time>2014-05-07T09:27:27Z</time></trkpt><trkpt lat="51.9846798107" lon="-2.2474644240"><ele>48.68</ele><time>2014-05-07T09:27:50Z</time></trkpt><trkpt lat="51.9847330358" lon="-2.2474777512"><ele>48.68</ele><time>2014-05-07T09:28:03Z</time></trkpt><trkpt lat="51.9847362209" lon="-2.2474883124"><ele>48.20</ele><time>2014-05-07T09:28:04Z</time></trkpt><trkpt lat="51.9847694971" lon="-2.2475290485"><ele>48.20</ele><time>2014-05-07T09:28:08Z</time></trkpt><trkpt lat="51.9849047810" lon="-2.2477156296"><ele>48.20</ele><time>2014-05-07T09:28:25Z</time></trkpt><trkpt lat="51.9850141648" lon="-2.2478390951"><ele>48.20</ele><time>2014-05-07T09:28:39Z</time></trkpt><trkpt lat="51.9850198645" lon="-2.2478475608"><ele>48.68</ele><time>2014-05-07T09:28:40Z</time></trkpt><trkpt lat="51.9851453416" lon="-2.2480075713"><ele>48.20</ele><time>2014-05-07T09:28:54Z</time></trkpt><trkpt lat="51.9852592517" lon="-2.2481501475"><ele>48.68</ele><time>2014-05-07T09:29:07Z</time></trkpt><trkpt lat="51.9853276480" lon="-2.2482346371"><ele>48.20</ele><time>2014-05-07T09:29:15Z</time></trkpt><trkpt lat="51.9853891712" lon="-2.2482953221"><ele>48.20</ele><time>2014-05-07T09:29:22Z</time></trkpt><trkpt lat="51.9855762552" lon="-2.2484343778"><ele>48.20</ele><time>2014-05-07T09:29:38Z</time></trkpt><trkpt lat="51.9856478367" lon="-2.2484983318"><ele>48.20</ele><time>2014-05-07T09:29:50Z</time></trkpt><trkpt lat="51.9856666960" lon="-2.2484955657"><ele>48.20</ele><time>2014-05-07T09:30:02Z</time></trkpt><trkpt lat="51.9856672827" lon="-2.2485047020"><ele>48.20</ele><time>2014-05-07T09:30:24Z</time></trkpt><trkpt lat="51.9857267942" lon="-2.2485039476"><ele>47.72</ele><time>2014-05-07T09:30:29Z</time></trkpt><trkpt lat="51.9858507626" lon="-2.2485736851"><ele>47.24</ele><time>2014-05-07T09:30:42Z</time></trkpt><trkpt lat="51.9860173948" lon="-2.2486669756"><ele>47.24</ele><time>2014-05-07T09:30:58Z</time></trkpt><trkpt lat="51.9861200731" lon="-2.2487383895"><ele>47.24</ele><time>2014-05-07T09:31:13Z</time></trkpt><trkpt lat="51.9861714542" lon="-2.2487550694"><ele>47.24</ele><time>2014-05-07T09:31:27Z</time></trkpt><trkpt lat="51.9862736296" lon="-2.2488048580"><ele>46.76</ele><time>2014-05-07T09:31:42Z</time></trkpt><trkpt lat="51.9863105938" lon="-2.2488195263"><ele>46.76</ele><time>2014-05-07T09:31:47Z</time></trkpt><trkpt lat="51.9863403495" lon="-2.2488345299"><ele>46.28</ele><time>2014-05-07T09:31:50Z</time></trkpt><trkpt lat="51.9863684289" lon="-2.2488499526"><ele>46.76</ele><time>2014-05-07T09:31:53Z</time></trkpt><trkpt lat="51.9864875358" lon="-2.2489356156"><ele>46.28</ele><time>2014-05-07T09:32:07Z</time></trkpt><trkpt lat="51.9865940697" lon="-2.2489821352"><ele>45.80</ele><time>2014-05-07T09:32:21Z</time></trkpt><trkpt lat="51.9866967481" lon="-2.2490473464"><ele>45.32</ele><time>2014-05-07T09:32:33Z</time></trkpt><trkpt lat="51.9867270906" lon="-2.2490906809"><ele>45.32</ele><time>2014-05-07T09:32:50Z</time></trkpt><trkpt lat="51.9867989235" lon="-2.2490982246"><ele>45.32</ele><time>2014-05-07T09:32:54Z</time></trkpt><trkpt lat="51.9869284239" lon="-2.2491322551"><ele>45.80</ele><time>2014-05-07T09:33:07Z</time></trkpt><trkpt lat="51.9870626181" lon="-2.2491874918"><ele>45.32</ele><time>2014-05-07T09:33:23Z</time></trkpt><trkpt lat="51.9871576689" lon="-2.2492280602"><ele>45.32</ele><time>2014-05-07T09:33:35Z</time></trkpt><trkpt lat="51.9872785360" lon="-2.2492735740"><ele>44.36</ele><time>2014-05-07T09:33:48Z</time></trkpt><trkpt lat="51.9874353614" lon="-2.2493213508"><ele>45.32</ele><time>2014-05-07T09:34:04Z</time></trkpt><trkpt lat="51.9876149856" lon="-2.2493956145"><ele>44.84</ele><time>2014-05-07T09:34:19Z</time></trkpt><trkpt lat="51.9876816217" lon="-2.2494161502"><ele>44.84</ele><time>2014-05-07T09:34:26Z</time></trkpt><trkpt lat="51.9877091981" lon="-2.2494347580"><ele>44.84</ele><time>2014-05-07T09:34:29Z</time></trkpt><trkpt lat="51.9878454041" lon="-2.2494599875"><ele>44.84</ele><time>2014-05-07T09:34:42Z</time></trkpt><trkpt lat="51.9878886547" lon="-2.2494947724"><ele>44.84</ele><time>2014-05-07T09:34:50Z</time></trkpt><trkpt lat="51.9879951049" lon="-2.2495214269"><ele>44.84</ele><time>2014-05-07T09:35:02Z</time></trkpt><trkpt lat="51.9880506769" lon="-2.2495338321"><ele>43.88</ele><time>2014-05-07T09:35:08Z</time></trkpt><trkpt lat="51.9880827796" lon="-2.2495461535"><ele>43.40</ele><time>2014-05-07T09:35:11Z</time></trkpt><trkpt lat="51.9881899003" lon="-2.2495901585"><ele>43.40</ele><time>2014-05-07T09:35:20Z</time></trkpt><trkpt lat="51.9883281179" lon="-2.2496556211"><ele>42.44</ele><time>2014-05-07T09:35:33Z</time></trkpt><trkpt lat="51.9884427823" lon="-2.2497216705"><ele>43.40</ele><time>2014-05-07T09:35:43Z</time></trkpt><trkpt lat="51.9885629788" lon="-2.2498057410"><ele>42.92</ele><time>2014-05-07T09:35:54Z</time></trkpt><trkpt lat="51.9886642322" lon="-2.2498904821"><ele>42.92</ele><time>2014-05-07T09:36:05Z</time></trkpt><trkpt lat="51.9886773080" lon="-2.2499069944"><ele>42.44</ele><time>2014-05-07T09:36:07Z</time></trkpt><trkpt lat="51.9887219835" lon="-2.2499517538"><ele>42.44</ele><time>2014-05-07T09:36:13Z</time></trkpt><trkpt lat="51.9887615461" lon="-2.2499983571"><ele>41.95</ele><time>2014-05-07T09:36:18Z</time></trkpt><trkpt lat="51.9888784736" lon="-2.2501052264"><ele>40.99</ele><time>2014-05-07T09:36:31Z</time></trkpt><trkpt lat="51.9889871869" lon="-2.2502076533"><ele>39.55</ele><time>2014-05-07T09:36:44Z</time></trkpt><trkpt lat="51.9890982471" lon="-2.2503162827"><ele>39.07</ele><time>2014-05-07T09:36:58Z</time></trkpt><trkpt lat="51.9891324453" lon="-2.2503333818"><ele>39.07</ele><time>2014-05-07T09:37:01Z</time></trkpt><trkpt lat="51.9892098103" lon="-2.2503954079"><ele>38.59</ele><time>2014-05-07T09:37:13Z</time></trkpt><trkpt lat="51.9892170187" lon="-2.2504056338"><ele>38.59</ele><time>2014-05-07T09:37:14Z</time></trkpt><trkpt lat="51.9893593434" lon="-2.2505190410"><ele>38.59</ele><time>2014-05-07T09:37:26Z</time></trkpt><trkpt lat="51.9893722516" lon="-2.2505273391"><ele>38.11</ele><time>2014-05-07T09:37:28Z</time></trkpt><trkpt lat="51.9894160889" lon="-2.2505498864"><ele>38.59</ele><time>2014-05-07T09:37:32Z</time></trkpt><trkpt lat="51.9895634428" lon="-2.2506085597"><ele>37.63</ele><time>2014-05-07T09:37:46Z</time></trkpt><trkpt lat="51.9896680489" lon="-2.2506708372"><ele>37.15</ele><time>2014-05-07T09:37:56Z</time></trkpt><trkpt lat="51.9897171669" lon="-2.2506981622"><ele>37.15</ele><time>2014-05-07T09:38:02Z</time></trkpt><trkpt lat="51.9897536281" lon="-2.2507115733"><ele>36.67</ele><time>2014-05-07T09:38:05Z</time></trkpt><trkpt lat="51.9897798635" lon="-2.2507312708"><ele>37.15</ele><time>2014-05-07T09:38:08Z</time></trkpt><trkpt lat="51.9898015726" lon="-2.2507437598"><ele>37.15</ele><time>2014-05-07T09:38:11Z</time></trkpt><trkpt lat="51.9898216054" lon="-2.2507473640"><ele>36.67</ele><time>2014-05-07T09:38:13Z</time></trkpt><trkpt lat="51.9898678735" lon="-2.2507715039"><ele>36.67</ele><time>2014-05-07T09:38:18Z</time></trkpt><trkpt lat="51.9899744913" lon="-2.2508212924"><ele>36.67</ele><time>2014-05-07T09:38:30Z</time></trkpt><trkpt lat="51.9900449831" lon="-2.2508490365"><ele>36.19</ele><time>2014-05-07T09:38:39Z</time></trkpt><trkpt lat="51.9901286345" lon="-2.2508919518"><ele>36.19</ele><time>2014-05-07T09:38:47Z</time></trkpt><trkpt lat="51.9902160577" lon="-2.2509279940"><ele>36.19</ele><time>2014-05-07T09:38:56Z</time></trkpt><trkpt lat="51.9902439695" lon="-2.2509429138"><ele>36.19</ele><time>2014-05-07T09:38:59Z</time></trkpt><trkpt lat="51.9902668521" lon="-2.2509493679"><ele>36.67</ele><time>2014-05-07T09:39:01Z</time></trkpt><trkpt lat="51.9902924169" lon="-2.2509635333"><ele>36.19</ele><time>2014-05-07T09:39:04Z</time></trkpt><trkpt lat="51.9903893117" lon="-2.2510017548"><ele>36.67</ele><time>2014-05-07T09:39:13Z</time></trkpt><trkpt lat="51.9904208276" lon="-2.2510134056"><ele>36.19</ele><time>2014-05-07T09:39:16Z</time></trkpt><trkpt lat="51.9905438740" lon="-2.2510719951"><ele>36.67</ele><time>2014-05-07T09:39:29Z</time></trkpt><trkpt lat="51.9906323031" lon="-2.2510984819"><ele>36.19</ele><time>2014-05-07T09:39:43Z</time></trkpt><trkpt lat="51.9906431995" lon="-2.2511035949"><ele>36.19</ele><time>2014-05-07T09:39:44Z</time></trkpt><trkpt lat="51.9907417707" lon="-2.2511460073"><ele>36.67</ele><time>2014-05-07T09:39:56Z</time></trkpt><trkpt lat="51.9907672517" lon="-2.2511630226"><ele>36.19</ele><time>2014-05-07T09:39:59Z</time></trkpt><trkpt lat="51.9908011984" lon="-2.2511744220"><ele>36.19</ele><time>2014-05-07T09:40:02Z</time></trkpt><trkpt lat="51.9908212312" lon="-2.2511766013"><ele>36.19</ele><time>2014-05-07T09:40:04Z</time></trkpt><trkpt lat="51.9908500649" lon="-2.2511888389"><ele>35.71</ele><time>2014-05-07T09:40:07Z</time></trkpt><trkpt lat="51.9909928925" lon="-2.2512553073"><ele>35.71</ele><time>2014-05-07T09:40:22Z</time></trkpt><trkpt lat="51.9910586067" lon="-2.2512854822"><ele>34.74</ele><time>2014-05-07T09:40:28Z</time></trkpt><trkpt lat="51.9910903741" lon="-2.2513034195"><ele>35.23</ele><time>2014-05-07T09:40:31Z</time></trkpt><trkpt lat="51.9912601076" lon="-2.2513843048"><ele>35.23</ele><time>2014-05-07T09:40:48Z</time></trkpt><trkpt lat="51.9913208764" lon="-2.2513947822"><ele>35.23</ele><time>2014-05-07T09:40:55Z</time></trkpt><trkpt lat="51.9913974032" lon="-2.2514111269"><ele>35.23</ele><time>2014-05-07T09:41:02Z</time></trkpt><trkpt lat="51.9914867543" lon="-2.2514252085"><ele>34.26</ele><time>2014-05-07T09:41:10Z</time></trkpt><trkpt lat="51.9915358722" lon="-2.2514383681"><ele>34.26</ele><time>2014-05-07T09:41:16Z</time></trkpt><trkpt lat="51.9916761853" lon="-2.2515028249"><ele>33.30</ele><time>2014-05-07T09:41:31Z</time></trkpt><trkpt lat="51.9918061886" lon="-2.2515172418"><ele>33.30</ele><time>2014-05-07T09:41:48Z</time></trkpt><trkpt lat="51.9919664506" lon="-2.2514536232"><ele>33.30</ele><time>2014-05-07T09:42:05Z</time></trkpt><trkpt lat="51.9920373615" lon="-2.2513397131"><ele>32.82</ele><time>2014-05-07T09:42:19Z</time></trkpt><trkpt lat="51.9920483418" lon="-2.2513106279"><ele>31.86</ele><time>2014-05-07T09:42:32Z</time></trkpt><trkpt lat="51.9920697995" lon="-2.2513383720"><ele>31.86</ele><time>2014-05-07T09:42:48Z</time></trkpt><trkpt lat="51.9921259582" lon="-2.2514079418"><ele>30.42</ele><time>2014-05-07T09:43:05Z</time></trkpt><trkpt lat="51.9922751561" lon="-2.2516063415"><ele>30.90</ele><time>2014-05-07T09:43:22Z</time></trkpt><trkpt lat="51.9923743140" lon="-2.2517666034"><ele>30.42</ele><time>2014-05-07T09:43:37Z</time></trkpt><trkpt lat="51.9924334902" lon="-2.2518444713"><ele>30.42</ele><time>2014-05-07T09:43:50Z</time></trkpt><trkpt lat="51.9925037306" lon="-2.2519613151"><ele>30.42</ele><time>2014-05-07T09:44:10Z</time></trkpt><trkpt lat="51.9926023856" lon="-2.2520920727"><ele>30.42</ele><time>2014-05-07T09:44:27Z</time></trkpt><trkpt lat="51.9926955085" lon="-2.2522027977"><ele>30.90</ele><time>2014-05-07T09:44:42Z</time></trkpt><trkpt lat="51.9927552715" lon="-2.2522914782"><ele>30.42</ele><time>2014-05-07T09:44:54Z</time></trkpt><trkpt lat="51.9928074069" lon="-2.2523774765"><ele>30.42</ele><time>2014-05-07T09:45:07Z</time></trkpt><trkpt lat="51.9928273559" lon="-2.2524631396"><ele>30.42</ele><time>2014-05-07T09:45:22Z</time></trkpt><trkpt lat="51.9929672498" lon="-2.2525985073"><ele>29.94</ele><time>2014-05-07T09:45:39Z</time></trkpt><trkpt lat="51.9931187946" lon="-2.2527647205"><ele>28.98</ele><time>2014-05-07T09:45:55Z</time></trkpt><trkpt lat="51.9933606964" lon="-2.2529065423"><ele>28.98</ele><time>2014-05-07T09:46:09Z</time></trkpt><trkpt lat="51.9935847446" lon="-2.2531351168"><ele>28.50</ele><time>2014-05-07T09:46:29Z</time></trkpt><trkpt lat="51.9937458448" lon="-2.2532732505"><ele>28.50</ele><time>2014-05-07T09:46:44Z</time></trkpt><trkpt lat="51.9938698970" lon="-2.2534113843"><ele>28.50</ele><time>2014-05-07T09:47:00Z</time></trkpt><trkpt lat="51.9939553086" lon="-2.2534734942"><ele>28.50</ele><time>2014-05-07T09:47:16Z</time></trkpt><trkpt lat="51.9939622656" lon="-2.2534848936"><ele>28.02</ele><time>2014-05-07T09:47:34Z</time></trkpt><trkpt lat="51.9939037599" lon="-2.2535599116"><ele>26.57</ele><time>2014-05-07T09:47:46Z</time></trkpt><trkpt lat="51.9938957971" lon="-2.2535657790"><ele>27.53</ele><time>2014-05-07T09:48:04Z</time></trkpt><trkpt lat="51.9939159136" lon="-2.2535136435"><ele>28.50</ele><time>2014-05-07T09:48:19Z</time></trkpt><trkpt lat="51.9939421490" lon="-2.2534856480"><ele>28.50</ele><time>2014-05-07T09:48:23Z</time></trkpt><trkpt lat="51.9940403849" lon="-2.2534722369"><ele>28.50</ele><time>2014-05-07T09:48:37Z</time></trkpt><trkpt lat="51.9940914307" lon="-2.2534646932"><ele>28.50</ele><time>2014-05-07T09:48:50Z</time></trkpt><trkpt lat="51.9941321667" lon="-2.2534040920"><ele>28.50</ele><time>2014-05-07T09:48:55Z</time></trkpt><trkpt lat="51.9941739086" lon="-2.2533589974"><ele>28.50</ele><time>2014-05-07T09:49:08Z</time></trkpt><trkpt lat="51.9941249583" lon="-2.2534610890"><ele>28.02</ele><time>2014-05-07T09:49:20Z</time></trkpt><trkpt lat="51.9941040874" lon="-2.2535045911"><ele>28.50</ele><time>2014-05-07T09:49:39Z</time></trkpt><trkpt lat="51.9940971304" lon="-2.2535324190"><ele>28.98</ele><time>2014-05-07T09:50:07Z</time></trkpt><trkpt lat="51.9940892514" lon="-2.2535364423"><ele>28.98</ele><time>2014-05-07T09:50:30Z</time></trkpt><trkpt lat="51.9940910954" lon="-2.2535211872"><ele>28.50</ele><time>2014-05-07T09:50:50Z</time></trkpt><trkpt lat="51.9940917660" lon="-2.2535191756"><ele>29.46</ele><time>2014-05-07T09:51:11Z</time></trkpt><trkpt lat="51.9940916821" lon="-2.2535176668"><ele>28.98</ele><time>2014-05-07T09:51:29Z</time></trkpt><trkpt lat="51.9940945320" lon="-2.2535224445"><ele>29.46</ele><time>2014-05-07T09:51:56Z</time></trkpt><trkpt lat="51.9940984715" lon="-2.2535201814"><ele>29.46</ele><time>2014-05-07T09:52:24Z</time></trkpt><trkpt lat="51.9941002317" lon="-2.2535185888"><ele>28.98</ele><time>2014-05-07T09:52:45Z</time></trkpt><trkpt lat="51.9941034168" lon="-2.2535124701"><ele>28.98</ele><time>2014-05-07T09:53:04Z</time></trkpt><trkpt lat="51.9941016566" lon="-2.2534968797"><ele>28.98</ele><time>2014-05-07T09:53:30Z</time></trkpt><trkpt lat="51.9941028301" lon="-2.2534939460"><ele>28.98</ele><time>2014-05-07T09:54:01Z</time></trkpt><trkpt lat="51.9941050932" lon="-2.2534984723"><ele>28.50</ele><time>2014-05-07T09:54:29Z</time></trkpt><trkpt lat="51.9941067696" lon="-2.2534973826"><ele>28.98</ele><time>2014-05-07T09:54:52Z</time></trkpt><trkpt lat="51.9941042550" lon="-2.2534995619"><ele>28.98</ele><time>2014-05-07T09:55:16Z</time></trkpt><trkpt lat="51.9941032492" lon="-2.2535170801"><ele>28.50</ele><time>2014-05-07T09:55:39Z</time></trkpt><trkpt lat="51.9941031653" lon="-2.2535195947"><ele>28.98</ele><time>2014-05-07T09:56:09Z</time></trkpt><trkpt lat="51.9941022433" lon="-2.2535362747"><ele>28.98</ele><time>2014-05-07T09:56:38Z</time></trkpt><trkpt lat="51.9941009022" lon="-2.2535444889"><ele>28.50</ele><time>2014-05-07T09:57:04Z</time></trkpt><trkpt lat="51.9941102900" lon="-2.2535196785"><ele>28.98</ele><time>2014-05-07T09:57:19Z</time></trkpt><trkpt lat="51.9941195101" lon="-2.2534747515"><ele>28.98</ele><time>2014-05-07T09:57:22Z</time></trkpt><trkpt lat="51.9941348489" lon="-2.2534522880"><ele>28.98</ele><time>2014-05-07T09:57:24Z</time></trkpt><trkpt lat="51.9941668678" lon="-2.2533690557"><ele>28.98</ele><time>2014-05-07T09:57:40Z</time></trkpt><trkpt lat="51.9941763394" lon="-2.2533674631"><ele>28.02</ele><time>2014-05-07T09:58:05Z</time></trkpt><trkpt lat="51.9941651914" lon="-2.2533786949"><ele>28.98</ele><time>2014-05-07T09:58:09Z</time></trkpt><trkpt lat="51.9940568972" lon="-2.2534307465"><ele>28.98</ele><time>2014-05-07T09:58:21Z</time></trkpt><trkpt lat="51.9940308295" lon="-2.2534327582"><ele>28.98</ele><time>2014-05-07T09:58:24Z</time></trkpt><trkpt lat="51.9939962123" lon="-2.2534340993"><ele>29.46</ele><time>2014-05-07T09:58:27Z</time></trkpt><trkpt lat="51.9939333480" lon="-2.2535130568"><ele>28.50</ele><time>2014-05-07T09:58:33Z</time></trkpt><trkpt lat="51.9939149078" lon="-2.2535303235"><ele>28.50</ele><time>2014-05-07T09:58:35Z</time></trkpt><trkpt lat="51.9938793685" lon="-2.2536452394"><ele>28.02</ele><time>2014-05-07T09:58:41Z</time></trkpt><trkpt lat="51.9937818870" lon="-2.2538413759"><ele>28.50</ele><time>2014-05-07T09:58:53Z</time></trkpt><trkpt lat="51.9937581662" lon="-2.2538768314"><ele>27.53</ele><time>2014-05-07T09:58:56Z</time></trkpt><trkpt lat="51.9936466869" lon="-2.2540501691"><ele>29.46</ele><time>2014-05-07T09:59:09Z</time></trkpt><trkpt lat="51.9936278276" lon="-2.2541532665"><ele>29.46</ele><time>2014-05-07T09:59:21Z</time></trkpt><trkpt lat="51.9935924560" lon="-2.2542014625"><ele>27.53</ele><time>2014-05-07T09:59:30Z</time></trkpt><trkpt lat="51.9934565015" lon="-2.2543195635"><ele>29.46</ele><time>2014-05-07T09:59:42Z</time></trkpt><trkpt lat="51.9934469461" lon="-2.2543375008"><ele>29.46</ele><time>2014-05-07T09:59:43Z</time></trkpt><trkpt lat="51.9933564216" lon="-2.2544808313"><ele>28.50</ele><time>2014-05-07T09:59:54Z</time></trkpt><trkpt lat="51.9932803139" lon="-2.2545792349"><ele>28.50</ele><time>2014-05-07T10:00:02Z</time></trkpt><trkpt lat="51.9932361413" lon="-2.2546305321"><ele>29.94</ele><time>2014-05-07T10:00:16Z</time></trkpt><trkpt lat="51.9932300225" lon="-2.2546573542"><ele>29.46</ele><time>2014-05-07T10:00:39Z</time></trkpt><trkpt lat="51.9932258315" lon="-2.2546670772"><ele>29.46</ele><time>2014-05-07T10:00:59Z</time></trkpt><trkpt lat="51.9931806531" lon="-2.2547244933"><ele>27.53</ele><time>2014-05-07T10:01:09Z</time></trkpt><trkpt lat="51.9931710977" lon="-2.2547355574"><ele>27.53</ele><time>2014-05-07T10:01:12Z</time></trkpt><trkpt lat="51.9931277633" lon="-2.2547683306"><ele>27.53</ele><time>2014-05-07T10:01:17Z</time></trkpt><trkpt lat="51.9930332992" lon="-2.2548358049"><ele>28.02</ele><time>2014-05-07T10:01:28Z</time></trkpt><trkpt lat="51.9930141047" lon="-2.2548414208"><ele>27.53</ele><time>2014-05-07T10:01:30Z</time></trkpt><trkpt lat="51.9929535035" lon="-2.2548758704"><ele>28.02</ele><time>2014-05-07T10:01:37Z</time></trkpt><trkpt lat="51.9928987697" lon="-2.2549022734"><ele>28.02</ele><time>2014-05-07T10:01:42Z</time></trkpt><trkpt lat="51.9928527530" lon="-2.2549381480"><ele>28.50</ele><time>2014-05-07T10:01:47Z</time></trkpt><trkpt lat="51.9927762263" lon="-2.2549760342"><ele>28.98</ele><time>2014-05-07T10:01:54Z</time></trkpt><trkpt lat="51.9926760625" lon="-2.2550331149"><ele>28.98</ele><time>2014-05-07T10:02:05Z</time></trkpt><trkpt lat="51.9926269446" lon="-2.2550513875"><ele>28.50</ele><time>2014-05-07T10:02:09Z</time></trkpt><trkpt lat="51.9925585482" lon="-2.2550803889"><ele>28.50</ele><time>2014-05-07T10:02:15Z</time></trkpt><trkpt lat="51.9925415330" lon="-2.2550994996"><ele>28.02</ele><time>2014-05-07T10:02:17Z</time></trkpt><trkpt lat="51.9925069995" lon="-2.2551197838"><ele>28.98</ele><time>2014-05-07T10:02:21Z</time></trkpt><trkpt lat="51.9924779143" lon="-2.2551363800"><ele>28.50</ele><time>2014-05-07T10:02:24Z</time></trkpt><trkpt lat="51.9924633298" lon="-2.2551533952"><ele>28.98</ele><time>2014-05-07T10:02:26Z</time></trkpt><trkpt lat="51.9923583046" lon="-2.2552041896"><ele>29.46</ele><time>2014-05-07T10:02:37Z</time></trkpt><trkpt lat="51.9923149701" lon="-2.2552191932"><ele>29.46</ele><time>2014-05-07T10:02:42Z</time></trkpt><trkpt lat="51.9922972005" lon="-2.2552223783"><ele>28.98</ele><time>2014-05-07T10:02:44Z</time></trkpt><trkpt lat="51.9922593981" lon="-2.2552512120"><ele>28.50</ele><time>2014-05-07T10:02:48Z</time></trkpt><trkpt lat="51.9921651017" lon="-2.2552980669"><ele>28.98</ele><time>2014-05-07T10:02:57Z</time></trkpt><trkpt lat="51.9921071827" lon="-2.2553181835"><ele>29.46</ele><time>2014-05-07T10:03:03Z</time></trkpt><trkpt lat="51.9920771755" lon="-2.2553379647"><ele>29.46</ele><time>2014-05-07T10:03:06Z</time></trkpt><trkpt lat="51.9919730723" lon="-2.2553905193"><ele>29.94</ele><time>2014-05-07T10:03:16Z</time></trkpt><trkpt lat="51.9919424783" lon="-2.2553960513"><ele>29.46</ele><time>2014-05-07T10:03:19Z</time></trkpt><trkpt lat="51.9919273909" lon="-2.2554196883"><ele>29.94</ele><time>2014-05-07T10:03:22Z</time></trkpt><trkpt lat="51.9919090346" lon="-2.2554310039"><ele>29.46</ele><time>2014-05-07T10:03:24Z</time></trkpt><trkpt lat="51.9918713998" lon="-2.2554430738"><ele>29.94</ele><time>2014-05-07T10:03:28Z</time></trkpt><trkpt lat="51.9918309990" lon="-2.2554548085"><ele>29.94</ele><time>2014-05-07T10:03:32Z</time></trkpt><trkpt lat="51.9918095414" lon="-2.2554654535"><ele>29.46</ele><time>2014-05-07T10:03:34Z</time></trkpt><trkpt lat="51.9917324279" lon="-2.2554825526"><ele>30.42</ele><time>2014-05-07T10:03:42Z</time></trkpt><trkpt lat="51.9916699827" lon="-2.2554836422"><ele>30.90</ele><time>2014-05-07T10:03:54Z</time></trkpt><trkpt lat="51.9916364551" lon="-2.2554713208"><ele>29.94</ele><time>2014-05-07T10:04:12Z</time></trkpt><trkpt lat="51.9916057773" lon="-2.2554516234"><ele>29.46</ele><time>2014-05-07T10:04:23Z</time></trkpt><trkpt lat="51.9915657118" lon="-2.2555065248"><ele>30.42</ele><time>2014-05-07T10:04:29Z</time></trkpt><trkpt lat="51.9915309269" lon="-2.2555211093"><ele>30.42</ele><time>2014-05-07T10:04:32Z</time></trkpt><trkpt lat="51.9914683141" lon="-2.2555263899"><ele>30.90</ele><time>2014-05-07T10:04:38Z</time></trkpt><trkpt lat="51.9914153405" lon="-2.2555350233"><ele>30.42</ele><time>2014-05-07T10:04:43Z</time></trkpt><trkpt lat="51.9913288392" lon="-2.2555778548"><ele>30.90</ele><time>2014-05-07T10:04:51Z</time></trkpt><trkpt lat="51.9912937190" lon="-2.2555834707"><ele>30.90</ele><time>2014-05-07T10:04:54Z</time></trkpt><trkpt lat="51.9912739377" lon="-2.2555807885"><ele>31.86</ele><time>2014-05-07T10:04:56Z</time></trkpt><trkpt lat="51.9912420027" lon="-2.2556018271"><ele>30.42</ele><time>2014-05-07T10:04:59Z</time></trkpt><trkpt lat="51.9911786355" lon="-2.2556247935"><ele>30.90</ele><time>2014-05-07T10:05:05Z</time></trkpt><trkpt lat="51.9911069702" lon="-2.2556461673"><ele>31.38</ele><time>2014-05-07T10:05:12Z</time></trkpt><trkpt lat="51.9910889491" lon="-2.2556667030"><ele>32.82</ele><time>2014-05-07T10:05:14Z</time></trkpt><trkpt lat="51.9910633005" lon="-2.2556876577"><ele>30.90</ele><time>2014-05-07T10:05:17Z</time></trkpt><trkpt lat="51.9910343830" lon="-2.2557069361"><ele>30.90</ele><time>2014-05-07T10:05:20Z</time></trkpt><trkpt lat="51.9909603707" lon="-2.2557476722"><ele>31.38</ele><time>2014-05-07T10:05:28Z</time></trkpt><trkpt lat="51.9909097441" lon="-2.2557604127"><ele>30.90</ele><time>2014-05-07T10:05:33Z</time></trkpt><trkpt lat="51.9908518251" lon="-2.2557859775"><ele>32.34</ele><time>2014-05-07T10:05:39Z</time></trkpt><trkpt lat="51.9907688443" lon="-2.2558309045"><ele>32.34</ele><time>2014-05-07T10:05:49Z</time></trkpt><trkpt lat="51.9907087460" lon="-2.2558777593"><ele>30.90</ele><time>2014-05-07T10:05:56Z</time></trkpt><trkpt lat="51.9906635676" lon="-2.2558942717"><ele>33.30</ele><time>2014-05-07T10:06:02Z</time></trkpt><trkpt lat="51.9906302914" lon="-2.2559134662"><ele>31.86</ele><time>2014-05-07T10:06:05Z</time></trkpt><trkpt lat="51.9905774016" lon="-2.2559262905"><ele>31.86</ele><time>2014-05-07T10:06:10Z</time></trkpt><trkpt lat="51.9904948398" lon="-2.2559716366"><ele>32.82</ele><time>2014-05-07T10:06:18Z</time></trkpt><trkpt lat="51.9904941693" lon="-2.2559772525"><ele>32.82</ele><time>2014-05-07T10:06:20Z</time></trkpt><trkpt lat="51.9904727954" lon="-2.2559758276"><ele>31.86</ele><time>2014-05-07T10:06:23Z</time></trkpt><trkpt lat="51.9904367533" lon="-2.2560115345"><ele>30.90</ele><time>2014-05-07T10:06:27Z</time></trkpt><trkpt lat="51.9903842825" lon="-2.2560431343"><ele>32.34</ele><time>2014-05-07T10:06:36Z</time></trkpt><trkpt lat="51.9903484080" lon="-2.2560575511"><ele>31.86</ele><time>2014-05-07T10:06:42Z</time></trkpt><trkpt lat="51.9902951829" lon="-2.2560769971"><ele>30.90</ele><time>2014-05-07T10:06:47Z</time></trkpt><trkpt lat="51.9901908282" lon="-2.2561429627"><ele>30.42</ele><time>2014-05-07T10:06:58Z</time></trkpt><trkpt lat="51.9901833683" lon="-2.2561473213"><ele>30.90</ele><time>2014-05-07T10:06:59Z</time></trkpt><trkpt lat="51.9900865573" lon="-2.2561951820"><ele>29.94</ele><time>2014-05-07T10:07:09Z</time></trkpt><trkpt lat="51.9900692906" lon="-2.2562142927"><ele>28.50</ele><time>2014-05-07T10:07:11Z</time></trkpt><trkpt lat="51.9900495093" lon="-2.2562256921"><ele>31.38</ele><time>2014-05-07T10:07:13Z</time></trkpt><trkpt lat="51.9900252018" lon="-2.2562360857"><ele>31.38</ele><time>2014-05-07T10:07:15Z</time></trkpt><trkpt lat="51.9899918418" lon="-2.2562323138"><ele>28.98</ele><time>2014-05-07T10:07:18Z</time></trkpt><trkpt lat="51.9899289776" lon="-2.2562970221"><ele>29.94</ele><time>2014-05-07T10:07:26Z</time></trkpt><trkpt lat="51.9898960367" lon="-2.2563262749"><ele>29.94</ele><time>2014-05-07T10:07:31Z</time></trkpt><trkpt lat="51.9898503553" lon="-2.2563147079"><ele>29.46</ele><time>2014-05-07T10:07:36Z</time></trkpt><trkpt lat="51.9898264669" lon="-2.2563060746"><ele>29.94</ele><time>2014-05-07T10:07:42Z</time></trkpt><trkpt lat="51.9898220245" lon="-2.2562866285"><ele>28.50</ele><time>2014-05-07T10:08:07Z</time></trkpt><trkpt lat="51.9898270536" lon="-2.2562800068"><ele>28.98</ele><time>2014-05-07T10:08:38Z</time></trkpt><trkpt lat="51.9898238685" lon="-2.2562729660"><ele>28.98</ele><time>2014-05-07T10:08:52Z</time></trkpt><trkpt lat="51.9898180850" lon="-2.2562753130"><ele>29.46</ele><time>2014-05-07T10:09:18Z</time></trkpt><trkpt lat="51.9897774328" lon="-2.2563128639"><ele>29.94</ele><time>2014-05-07T10:09:23Z</time></trkpt><trkpt lat="51.9897190109" lon="-2.2563458886"><ele>29.94</ele><time>2014-05-07T10:09:28Z</time></trkpt><trkpt lat="51.9896462560" lon="-2.2563701961"><ele>28.98</ele><time>2014-05-07T10:09:34Z</time></trkpt><trkpt lat="51.9896214455" lon="-2.2563721240"><ele>29.46</ele><time>2014-05-07T10:09:36Z</time></trkpt><trkpt lat="51.9895641133" lon="-2.2564043943"><ele>28.98</ele><time>2014-05-07T10:09:41Z</time></trkpt><trkpt lat="51.9895027578" lon="-2.2564323898"><ele>29.46</ele><time>2014-05-07T10:09:47Z</time></trkpt><trkpt lat="51.9894601777" lon="-2.2564406041"><ele>28.02</ele><time>2014-05-07T10:09:51Z</time></trkpt><trkpt lat="51.9893365446" lon="-2.2565127723"><ele>28.98</ele><time>2014-05-07T10:10:02Z</time></trkpt><trkpt lat="51.9892155938" lon="-2.2565487307"><ele>28.50</ele><time>2014-05-07T10:10:12Z</time></trkpt><trkpt lat="51.9891810603" lon="-2.2565478925"><ele>27.53</ele><time>2014-05-07T10:10:15Z</time></trkpt><trkpt lat="51.9891616143" lon="-2.2565597948"><ele>27.05</ele><time>2014-05-07T10:10:17Z</time></trkpt><trkpt lat="51.9891022705" lon="-2.2565632313"><ele>27.53</ele><time>2014-05-07T10:10:21Z</time></trkpt><trkpt lat="51.9889287651" lon="-2.2566234134"><ele>27.53</ele><time>2014-05-07T10:10:35Z</time></trkpt><trkpt lat="51.9887656532" lon="-2.2566658258"><ele>27.05</ele><time>2014-05-07T10:10:49Z</time></trkpt><trkpt lat="51.9885961711" lon="-2.2567102499"><ele>27.05</ele><time>2014-05-07T10:11:02Z</time></trkpt><trkpt lat="51.9884964265" lon="-2.2567461245"><ele>26.57</ele><time>2014-05-07T10:11:10Z</time></trkpt><trkpt lat="51.9883592147" lon="-2.2567548417"><ele>26.09</ele><time>2014-05-07T10:11:22Z</time></trkpt><trkpt lat="51.9882414490" lon="-2.2567919735"><ele>26.57</ele><time>2014-05-07T10:11:33Z</time></trkpt><trkpt lat="51.9881810993" lon="-2.2568135150"><ele>26.57</ele><time>2014-05-07T10:11:38Z</time></trkpt><trkpt lat="51.9880381878" lon="-2.2568089049"><ele>26.09</ele><time>2014-05-07T10:11:52Z</time></trkpt><trkpt lat="51.9880023971" lon="-2.2568001039"><ele>25.13</ele><time>2014-05-07T10:11:56Z</time></trkpt><trkpt lat="51.9879209250" lon="-2.2568379063"><ele>26.57</ele><time>2014-05-07T10:12:04Z</time></trkpt><trkpt lat="51.9878972881" lon="-2.2568477970"><ele>27.53</ele><time>2014-05-07T10:12:07Z</time></trkpt><trkpt lat="51.9877562206" lon="-2.2569192946"><ele>26.09</ele><time>2014-05-07T10:12:20Z</time></trkpt><trkpt lat="51.9877226930" lon="-2.2569422610"><ele>26.57</ele><time>2014-05-07T10:12:23Z</time></trkpt><trkpt lat="51.9876432326" lon="-2.2569973301"><ele>26.09</ele><time>2014-05-07T10:12:30Z</time></trkpt><trkpt lat="51.9875064399" lon="-2.2570660617"><ele>27.53</ele><time>2014-05-07T10:12:42Z</time></trkpt><trkpt lat="51.9874417316" lon="-2.2571015172"><ele>27.05</ele><time>2014-05-07T10:12:48Z</time></trkpt><trkpt lat="51.9874014147" lon="-2.2571300156"><ele>27.05</ele><time>2014-05-07T10:12:52Z</time></trkpt><trkpt lat="51.9873667136" lon="-2.2571630403"><ele>27.05</ele><time>2014-05-07T10:12:56Z</time></trkpt><trkpt lat="51.9872349501" lon="-2.2572291736"><ele>27.05</ele><time>2014-05-07T10:13:07Z</time></trkpt><trkpt lat="51.9871849939" lon="-2.2572474461"><ele>27.53</ele><time>2014-05-07T10:13:12Z</time></trkpt><trkpt lat="51.9870990794" lon="-2.2572907805"><ele>27.53</ele><time>2014-05-07T10:13:25Z</time></trkpt><trkpt lat="51.9870994985" lon="-2.2572887689"><ele>28.02</ele><time>2014-05-07T10:13:39Z</time></trkpt><trkpt lat="51.9870929606" lon="-2.2572796326"><ele>28.02</ele><time>2014-05-07T10:13:56Z</time></trkpt><trkpt lat="51.9870870095" lon="-2.2572840750"><ele>27.53</ele><time>2014-05-07T10:14:11Z</time></trkpt><trkpt lat="51.9870849978" lon="-2.2572914511"><ele>27.53</ele><time>2014-05-07T10:14:30Z</time></trkpt><trkpt lat="51.9870861713" lon="-2.2572966479"><ele>27.53</ele><time>2014-05-07T10:14:56Z</time></trkpt><trkpt lat="51.9870855007" lon="-2.2572849132"><ele>27.53</ele><time>2014-05-07T10:15:23Z</time></trkpt><trkpt lat="51.9870528113" lon="-2.2572727595"><ele>27.53</ele><time>2014-05-07T10:15:45Z</time></trkpt><trkpt lat="51.9870171044" lon="-2.2572852485"><ele>27.53</ele><time>2014-05-07T10:15:50Z</time></trkpt><trkpt lat="51.9869907852" lon="-2.2573169321"><ele>27.05</ele><time>2014-05-07T10:15:53Z</time></trkpt><trkpt lat="51.9869228080" lon="-2.2573880106"><ele>26.09</ele><time>2014-05-07T10:16:02Z</time></trkpt><trkpt lat="51.9868427608" lon="-2.2574209515"><ele>27.53</ele><time>2014-05-07T10:16:10Z</time></trkpt><trkpt lat="51.9867427647" lon="-2.2574496176"><ele>27.05</ele><time>2014-05-07T10:16:21Z</time></trkpt><trkpt lat="51.9866790622" lon="-2.2574576642"><ele>26.57</ele><time>2014-05-07T10:16:27Z</time></trkpt><trkpt lat="51.9866307825" lon="-2.2574808821"><ele>27.53</ele><time>2014-05-07T10:16:31Z</time></trkpt><trkpt lat="51.9864998572" lon="-2.2574584186"><ele>27.53</ele><time>2014-05-07T10:16:44Z</time></trkpt><trkpt lat="51.9864493143" lon="-2.2574315127"><ele>27.53</ele><time>2014-05-07T10:16:49Z</time></trkpt><trkpt lat="51.9863439538" lon="-2.2573918663"><ele>27.05</ele><time>2014-05-07T10:17:01Z</time></trkpt><trkpt lat="51.9863319676" lon="-2.2573853284"><ele>27.53</ele><time>2014-05-07T10:17:13Z</time></trkpt><trkpt lat="51.9863235019" lon="-2.2573650442"><ele>27.53</ele><time>2014-05-07T10:17:37Z</time></trkpt><trkpt lat="51.9863192271" lon="-2.2573592607"><ele>27.53</ele><time>2014-05-07T10:17:42Z</time></trkpt><trkpt lat="51.9863121025" lon="-2.2573457658"><ele>27.05</ele><time>2014-05-07T10:18:04Z</time></trkpt><trkpt lat="51.9863048941" lon="-2.2573429998"><ele>27.05</ele><time>2014-05-07T10:18:16Z</time></trkpt><trkpt lat="51.9862639066" lon="-2.2573559079"><ele>26.09</ele><time>2014-05-07T10:18:27Z</time></trkpt><trkpt lat="51.9862343185" lon="-2.2573849931"><ele>26.09</ele><time>2014-05-07T10:18:40Z</time></trkpt><trkpt lat="51.9861707836" lon="-2.2575405613"><ele>25.61</ele><time>2014-05-07T10:18:48Z</time></trkpt><trkpt lat="51.9861269463" lon="-2.2576009110"><ele>26.57</ele><time>2014-05-07T10:18:53Z</time></trkpt><trkpt lat="51.9860557839" lon="-2.2577934433"><ele>27.05</ele><time>2014-05-07T10:19:04Z</time></trkpt><trkpt lat="51.9860411156" lon="-2.2578356881"><ele>25.13</ele><time>2014-05-07T10:19:07Z</time></trkpt><trkpt lat="51.9859639183" lon="-2.2579941060"><ele>25.13</ele><time>2014-05-07T10:19:19Z</time></trkpt><trkpt lat="51.9859143812" lon="-2.2581147216"><ele>25.61</ele><time>2014-05-07T10:19:27Z</time></trkpt><trkpt lat="51.9859058317" lon="-2.2581411246"><ele>25.61</ele><time>2014-05-07T10:19:29Z</time></trkpt><trkpt lat="51.9858311489" lon="-2.2583096847"><ele>25.61</ele><time>2014-05-07T10:19:42Z</time></trkpt><trkpt lat="51.9858121220" lon="-2.2584767360"><ele>25.13</ele><time>2014-05-07T10:19:55Z</time></trkpt><trkpt lat="51.9857775886" lon="-2.2586245090"><ele>25.13</ele><time>2014-05-07T10:20:06Z</time></trkpt><trkpt lat="51.9857349247" lon="-2.2586605512"><ele>25.61</ele><time>2014-05-07T10:20:11Z</time></trkpt><trkpt lat="51.9856861420" lon="-2.2586705256"><ele>25.13</ele><time>2014-05-07T10:20:16Z</time></trkpt><trkpt lat="51.9856361859" lon="-2.2587059811"><ele>25.13</ele><time>2014-05-07T10:20:30Z</time></trkpt><trkpt lat="51.9855853915" lon="-2.2587039694"><ele>25.61</ele><time>2014-05-07T10:20:44Z</time></trkpt><trkpt lat="51.9855761714" lon="-2.2587047238"><ele>25.61</ele><time>2014-05-07T10:20:45Z</time></trkpt><trkpt lat="51.9855294842" lon="-2.2587083280"><ele>24.65</ele><time>2014-05-07T10:20:50Z</time></trkpt><trkpt lat="51.9854708109" lon="-2.2587105073"><ele>25.13</ele><time>2014-05-07T10:21:03Z</time></trkpt><trkpt lat="51.9853785262" lon="-2.2587884590"><ele>26.09</ele><time>2014-05-07T10:21:13Z</time></trkpt><trkpt lat="51.9853244629" lon="-2.2589114215"><ele>25.61</ele><time>2014-05-07T10:21:28Z</time></trkpt><trkpt lat="51.9852832239" lon="-2.2589021176"><ele>25.13</ele><time>2014-05-07T10:21:39Z</time></trkpt><trkpt lat="51.9852294959" lon="-2.2589019500"><ele>25.13</ele><time>2014-05-07T10:21:43Z</time></trkpt><trkpt lat="51.9851668831" lon="-2.2588742059"><ele>25.61</ele><time>2014-05-07T10:21:53Z</time></trkpt><trkpt lat="51.9851543941" lon="-2.2588075697"><ele>25.61</ele><time>2014-05-07T10:22:07Z</time></trkpt><trkpt lat="51.9851554837" lon="-2.2588047199"><ele>24.17</ele><time>2014-05-07T10:22:23Z</time></trkpt><trkpt lat="51.9851417374" lon="-2.2587172966"><ele>23.21</ele><time>2014-05-07T10:22:37Z</time></trkpt><trkpt lat="51.9851580821" lon="-2.2586326394"><ele>23.21</ele><time>2014-05-07T10:22:49Z</time></trkpt><trkpt lat="51.9851563219" lon="-2.2586273588"><ele>22.73</ele><time>2014-05-07T10:22:59Z</time></trkpt><trkpt lat="51.9851009175" lon="-2.2586509120"><ele>23.21</ele><time>2014-05-07T10:23:05Z</time></trkpt><trkpt lat="51.9850554038" lon="-2.2586400993"><ele>23.69</ele><time>2014-05-07T10:23:09Z</time></trkpt><trkpt lat="51.9850130752" lon="-2.2586711962"><ele>23.69</ele><time>2014-05-07T10:23:23Z</time></trkpt><trkpt lat="51.9849792961" lon="-2.2586813383"><ele>23.69</ele><time>2014-05-07T10:23:26Z</time></trkpt><trkpt lat="51.9849783741" lon="-2.2587167937"><ele>23.69</ele><time>2014-05-07T10:23:31Z</time></trkpt><trkpt lat="51.9850773644" lon="-2.2588599566"><ele>23.69</ele><time>2014-05-07T10:23:43Z</time></trkpt><trkpt lat="51.9851147477" lon="-2.2590629663"><ele>24.17</ele><time>2014-05-07T10:23:56Z</time></trkpt><trkpt lat="51.9851258956" lon="-2.2590644751"><ele>24.65</ele><time>2014-05-07T10:23:58Z</time></trkpt><trkpt lat="51.9852247182" lon="-2.2591104079"><ele>25.61</ele><time>2014-05-07T10:24:07Z</time></trkpt><trkpt lat="51.9852768537" lon="-2.2592437640"><ele>25.61</ele><time>2014-05-07T10:24:16Z</time></trkpt><trkpt lat="51.9853292406" lon="-2.2594606038"><ele>25.61</ele><time>2014-05-07T10:24:28Z</time></trkpt><trkpt lat="51.9853438251" lon="-2.2594950534"><ele>25.61</ele><time>2014-05-07T10:24:30Z</time></trkpt><trkpt lat="51.9853836391" lon="-2.2595954686"><ele>25.61</ele><time>2014-05-07T10:24:36Z</time></trkpt><trkpt lat="51.9854199328" lon="-2.2596332710"><ele>25.61</ele><time>2014-05-07T10:24:49Z</time></trkpt><trkpt lat="51.9854210224" lon="-2.2596391384"><ele>25.61</ele><time>2014-05-07T10:25:05Z</time></trkpt><trkpt lat="51.9854237884" lon="-2.2596396413"><ele>26.09</ele><time>2014-05-07T10:25:23Z</time></trkpt><trkpt lat="51.9854241237" lon="-2.2596381325"><ele>25.61</ele><time>2014-05-07T10:25:26Z</time></trkpt><trkpt lat="51.9854116347" lon="-2.2595943790"><ele>25.61</ele><time>2014-05-07T10:25:31Z</time></trkpt><trkpt lat="51.9853833038" lon="-2.2595269047"><ele>25.61</ele><time>2014-05-07T10:25:36Z</time></trkpt><trkpt lat="51.9853545539" lon="-2.2594644595"><ele>26.09</ele><time>2014-05-07T10:25:40Z</time></trkpt><trkpt lat="51.9853454176" lon="-2.2594155930"><ele>25.61</ele><time>2014-05-07T10:25:43Z</time></trkpt><trkpt lat="51.9853176735" lon="-2.2593766171"><ele>26.09</ele><time>2014-05-07T10:25:56Z</time></trkpt><trkpt lat="51.9853169192" lon="-2.2593704145"><ele>25.61</ele><time>2014-05-07T10:26:00Z</time></trkpt><trkpt lat="51.9852697290" lon="-2.2592111584"><ele>25.13</ele><time>2014-05-07T10:26:12Z</time></trkpt><trkpt lat="51.9851682242" lon="-2.2591376491"><ele>25.13</ele><time>2014-05-07T10:26:23Z</time></trkpt><trkpt lat="51.9851236325" lon="-2.2590091545"><ele>25.13</ele><time>2014-05-07T10:26:34Z</time></trkpt><trkpt lat="51.9851097185" lon="-2.2588730324"><ele>24.17</ele><time>2014-05-07T10:26:43Z</time></trkpt><trkpt lat="51.9850574993" lon="-2.2588176280"><ele>23.69</ele><time>2014-05-07T10:26:49Z</time></trkpt><trkpt lat="51.9849539828" lon="-2.2587678395"><ele>24.17</ele><time>2014-05-07T10:27:01Z</time></trkpt><trkpt lat="51.9849453494" lon="-2.2587385029"><ele>24.65</ele><time>2014-05-07T10:27:11Z</time></trkpt><trkpt lat="51.9848724268" lon="-2.2586848587"><ele>23.21</ele><time>2014-05-07T10:27:22Z</time></trkpt><trkpt lat="51.9847907871" lon="-2.2586539295"><ele>23.21</ele><time>2014-05-07T10:27:32Z</time></trkpt><trkpt lat="51.9847294316" lon="-2.2586463857"><ele>23.69</ele><time>2014-05-07T10:27:41Z</time></trkpt><trkpt lat="51.9846001826" lon="-2.2586611379"><ele>23.69</ele><time>2014-05-07T10:27:55Z</time></trkpt><trkpt lat="51.9845024496" lon="-2.2586929891"><ele>23.21</ele><time>2014-05-07T10:28:06Z</time></trkpt><trkpt lat="51.9844176248" lon="-2.2587170452"><ele>23.21</ele><time>2014-05-07T10:28:16Z</time></trkpt><trkpt lat="51.9843686745" lon="-2.2587431129"><ele>23.21</ele><time>2014-05-07T10:28:22Z</time></trkpt><trkpt lat="51.9842592068" lon="-2.2587964218"><ele>23.69</ele><time>2014-05-07T10:28:35Z</time></trkpt><trkpt lat="51.9841959234" lon="-2.2588107549"><ele>23.21</ele><time>2014-05-07T10:28:42Z</time></trkpt><trkpt lat="51.9841443747" lon="-2.2588017024"><ele>22.73</ele><time>2014-05-07T10:28:48Z</time></trkpt><trkpt lat="51.9840354938" lon="-2.2588289436"><ele>23.21</ele><time>2014-05-07T10:29:00Z</time></trkpt><trkpt lat="51.9839400239" lon="-2.2588619683"><ele>22.73</ele><time>2014-05-07T10:29:11Z</time></trkpt><trkpt lat="51.9838961028" lon="-2.2588686738"><ele>22.73</ele><time>2014-05-07T10:29:16Z</time></trkpt><trkpt lat="51.9837932568" lon="-2.2588780615"><ele>22.25</ele><time>2014-05-07T10:29:27Z</time></trkpt><trkpt lat="51.9836869743" lon="-2.2588918917"><ele>21.77</ele><time>2014-05-07T10:29:37Z</time></trkpt><trkpt lat="51.9836664386" lon="-2.2589051351"><ele>21.29</ele><time>2014-05-07T10:29:39Z</time></trkpt><trkpt lat="51.9835999701" lon="-2.2589183785"><ele>21.77</ele><time>2014-05-07T10:29:51Z</time></trkpt><trkpt lat="51.9835568033" lon="-2.2589322925"><ele>22.25</ele><time>2014-05-07T10:30:04Z</time></trkpt><trkpt lat="51.9835436437" lon="-2.2589379922"><ele>22.25</ele><time>2014-05-07T10:30:06Z</time></trkpt><trkpt lat="51.9834293984" lon="-2.2590048797"><ele>22.25</ele><time>2014-05-07T10:30:19Z</time></trkpt><trkpt lat="51.9833226968" lon="-2.2590907104"><ele>21.77</ele><time>2014-05-07T10:30:32Z</time></trkpt><trkpt lat="51.9832491875" lon="-2.2591682430"><ele>21.29</ele><time>2014-05-07T10:30:42Z</time></trkpt><trkpt lat="51.9831662904" lon="-2.2592627071"><ele>21.29</ele><time>2014-05-07T10:30:54Z</time></trkpt><trkpt lat="51.9831372052" lon="-2.2592878528"><ele>21.29</ele><time>2014-05-07T10:31:06Z</time></trkpt><trkpt lat="51.9831279013" lon="-2.2593460232"><ele>21.77</ele><time>2014-05-07T10:31:18Z</time></trkpt><trkpt lat="51.9831235427" lon="-2.2594301775"><ele>20.81</ele><time>2014-05-07T10:31:30Z</time></trkpt><trkpt lat="51.9831382111" lon="-2.2595569119"><ele>21.29</ele><time>2014-05-07T10:31:40Z</time></trkpt><trkpt lat="51.9831469283" lon="-2.2597678006"><ele>21.29</ele><time>2014-05-07T10:31:56Z</time></trkpt><trkpt lat="51.9831535500" lon="-2.2599337623"><ele>21.77</ele><time>2014-05-07T10:32:09Z</time></trkpt><trkpt lat="51.9831579085" lon="-2.2599963751"><ele>22.25</ele><time>2014-05-07T10:32:23Z</time></trkpt><trkpt lat="51.9831486046" lon="-2.2601055913"><ele>22.25</ele><time>2014-05-07T10:32:31Z</time></trkpt><trkpt lat="51.9831419829" lon="-2.2601674497"><ele>21.77</ele><time>2014-05-07T10:32:35Z</time></trkpt><trkpt lat="51.9831367861" lon="-2.2603527736"><ele>22.25</ele><time>2014-05-07T10:32:48Z</time></trkpt><trkpt lat="51.9831289910" lon="-2.2604437172"><ele>21.77</ele><time>2014-05-07T10:32:55Z</time></trkpt><trkpt lat="51.9831258059" lon="-2.2604757361"><ele>21.77</ele><time>2014-05-07T10:32:57Z</time></trkpt><trkpt lat="51.9831050187" lon="-2.2606416140"><ele>22.25</ele><time>2014-05-07T10:33:09Z</time></trkpt><trkpt lat="51.9830750953" lon="-2.2607942484"><ele>21.77</ele><time>2014-05-07T10:33:21Z</time></trkpt><trkpt lat="51.9830480218" lon="-2.2609564383"><ele>21.77</ele><time>2014-05-07T10:33:34Z</time></trkpt><trkpt lat="51.9830147456" lon="-2.2611380741"><ele>21.77</ele><time>2014-05-07T10:33:48Z</time></trkpt><trkpt lat="51.9830128178" lon="-2.2611348890"><ele>21.77</ele><time>2014-05-07T10:34:07Z</time></trkpt><trkpt lat="51.9830109738" lon="-2.2611363977"><ele>21.77</ele><time>2014-05-07T10:34:22Z</time></trkpt><trkpt lat="51.9830077048" lon="-2.2611628007"><ele>21.29</ele><time>2014-05-07T10:34:24Z</time></trkpt><trkpt lat="51.9829803798" lon="-2.2612936422"><ele>21.29</ele><time>2014-05-07T10:34:33Z</time></trkpt><trkpt lat="51.9829595089" lon="-2.2613776289"><ele>19.84</ele><time>2014-05-07T10:34:38Z</time></trkpt><trkpt lat="51.9829317648" lon="-2.2614869289"><ele>20.81</ele><time>2014-05-07T10:34:45Z</time></trkpt><trkpt lat="51.9829077926" lon="-2.2615979053"><ele>20.32</ele><time>2014-05-07T10:34:51Z</time></trkpt><trkpt lat="51.9828700740" lon="-2.2617320996"><ele>20.32</ele><time>2014-05-07T10:34:59Z</time></trkpt><trkpt lat="51.9828031026" lon="-2.2619764321"><ele>20.32</ele><time>2014-05-07T10:35:13Z</time></trkpt><trkpt lat="51.9827692397" lon="-2.2621696349"><ele>20.32</ele><time>2014-05-07T10:35:24Z</time></trkpt><trkpt lat="51.9827668928" lon="-2.2621917631"><ele>20.32</ele><time>2014-05-07T10:35:25Z</time></trkpt><trkpt lat="51.9827458542" lon="-2.2622370254"><ele>20.81</ele><time>2014-05-07T10:35:28Z</time></trkpt><trkpt lat="51.9827021845" lon="-2.2624280490"><ele>19.36</ele><time>2014-05-07T10:35:38Z</time></trkpt><trkpt lat="51.9826484565" lon="-2.2626448050"><ele>20.32</ele><time>2014-05-07T10:35:51Z</time></trkpt><trkpt lat="51.9826244004" lon="-2.2627324797"><ele>19.84</ele><time>2014-05-07T10:35:56Z</time></trkpt><trkpt lat="51.9826089777" lon="-2.2627769038"><ele>19.84</ele><time>2014-05-07T10:35:59Z</time></trkpt><trkpt lat="51.9825968239" lon="-2.2628461383"><ele>19.84</ele><time>2014-05-07T10:36:03Z</time></trkpt><trkpt lat="51.9825836644" lon="-2.2628768161"><ele>19.84</ele><time>2014-05-07T10:36:05Z</time></trkpt><trkpt lat="51.9825648051" lon="-2.2629746329"><ele>19.84</ele><time>2014-05-07T10:36:10Z</time></trkpt><trkpt lat="51.9825515617" lon="-2.2630229965"><ele>19.36</ele><time>2014-05-07T10:36:13Z</time></trkpt><trkpt lat="51.9825092331" lon="-2.2632351425"><ele>19.84</ele><time>2014-05-07T10:36:25Z</time></trkpt><trkpt lat="51.9824628811" lon="-2.2633678280"><ele>19.36</ele><time>2014-05-07T10:36:33Z</time></trkpt><trkpt lat="51.9824600313" lon="-2.2634277586"><ele>19.36</ele><time>2014-05-07T10:36:36Z</time></trkpt><trkpt lat="51.9824224804" lon="-2.2636115737"><ele>19.84</ele><time>2014-05-07T10:36:50Z</time></trkpt><trkpt lat="51.9823806547" lon="-2.2637437563"><ele>19.84</ele><time>2014-05-07T10:37:01Z</time></trkpt><trkpt lat="51.9823760446" lon="-2.2637777030"><ele>19.84</ele><time>2014-05-07T10:37:03Z</time></trkpt><trkpt lat="51.9823333807" lon="-2.2639363725"><ele>19.36</ele><time>2014-05-07T10:37:15Z</time></trkpt><trkpt lat="51.9823058881" lon="-2.2640654538"><ele>19.36</ele><time>2014-05-07T10:37:24Z</time></trkpt><trkpt lat="51.9822983444" lon="-2.2641118057"><ele>18.88</ele><time>2014-05-07T10:37:27Z</time></trkpt><trkpt lat="51.9822737854" lon="-2.2642320860"><ele>18.88</ele><time>2014-05-07T10:37:38Z</time></trkpt><trkpt lat="51.9822680019" lon="-2.2642294876"><ele>18.88</ele><time>2014-05-07T10:38:07Z</time></trkpt><trkpt lat="51.9822615478" lon="-2.2642346006"><ele>19.36</ele><time>2014-05-07T10:38:15Z</time></trkpt><trkpt lat="51.9821963366" lon="-2.2644538712"><ele>17.92</ele><time>2014-05-07T10:38:30Z</time></trkpt><trkpt lat="51.9821847696" lon="-2.2644958645"><ele>18.40</ele><time>2014-05-07T10:38:44Z</time></trkpt><trkpt lat="51.9821816683" lon="-2.2644993011"><ele>18.40</ele><time>2014-05-07T10:39:07Z</time></trkpt><trkpt lat="51.9821644016" lon="-2.2644961160"><ele>17.92</ele><time>2014-05-07T10:39:24Z</time></trkpt><trkpt lat="51.9821604621" lon="-2.2645018157"><ele>17.92</ele><time>2014-05-07T10:39:46Z</time></trkpt><trkpt lat="51.9821566902" lon="-2.2645046655"><ele>18.40</ele><time>2014-05-07T10:40:14Z</time></trkpt><trkpt lat="51.9821718615" lon="-2.2645083535"><ele>18.40</ele><time>2014-05-07T10:40:30Z</time></trkpt><trkpt lat="51.9821734540" lon="-2.2645094432"><ele>14.56</ele><time>2014-05-07T10:40:33Z</time></trkpt><trkpt lat="51.9821743760" lon="-2.2645134665"><ele>20.32</ele><time>2014-05-07T10:40:34Z</time></trkpt><trkpt lat="51.9821731187" lon="-2.2645230219"><ele>17.44</ele><time>2014-05-07T10:40:45Z</time></trkpt><trkpt lat="51.9821564388" lon="-2.2645159811"><ele>17.44</ele><time>2014-05-07T10:41:10Z</time></trkpt><trkpt lat="51.9821687602" lon="-2.2644951101"><ele>18.40</ele><time>2014-05-07T10:41:34Z</time></trkpt><trkpt lat="51.9821785670" lon="-2.2645003907"><ele>18.40</ele><time>2014-05-07T10:41:57Z</time></trkpt><trkpt lat="51.9821755495" lon="-2.2645065933"><ele>17.92</ele><time>2014-05-07T10:42:19Z</time></trkpt><trkpt lat="51.9821483083" lon="-2.2645214293"><ele>17.44</ele><time>2014-05-07T10:42:26Z</time></trkpt><trkpt lat="51.9821197260" lon="-2.2645934299"><ele>17.44</ele><time>2014-05-07T10:42:31Z</time></trkpt><trkpt lat="51.9820922334" lon="-2.2647583857"><ele>16.48</ele><time>2014-05-07T10:42:42Z</time></trkpt><trkpt lat="51.9820826780" lon="-2.2648056597"><ele>16.48</ele><time>2014-05-07T10:42:45Z</time></trkpt><trkpt lat="51.9820786547" lon="-2.2648604773"><ele>16.96</ele><time>2014-05-07T10:42:51Z</time></trkpt><trkpt lat="51.9820454624" lon="-2.2650664207"><ele>14.56</ele><time>2014-05-07T10:43:03Z</time></trkpt><trkpt lat="51.9820274413" lon="-2.2652094159"><ele>15.04</ele><time>2014-05-07T10:43:11Z</time></trkpt><trkpt lat="51.9820230827" lon="-2.2652230784"><ele>16.00</ele><time>2014-05-07T10:43:12Z</time></trkpt><trkpt lat="51.9819936622" lon="-2.2654617112"><ele>15.52</ele><time>2014-05-07T10:43:27Z</time></trkpt><trkpt lat="51.9819563627" lon="-2.2657063790"><ele>15.52</ele><time>2014-05-07T10:43:41Z</time></trkpt><trkpt lat="51.9819147047" lon="-2.2659684811"><ele>15.52</ele><time>2014-05-07T10:43:57Z</time></trkpt><trkpt lat="51.9818834402" lon="-2.2662101313"><ele>16.00</ele><time>2014-05-07T10:44:11Z</time></trkpt><trkpt lat="51.9818814285" lon="-2.2662266437"><ele>16.00</ele><time>2014-05-07T10:44:12Z</time></trkpt><trkpt lat="51.9818691909" lon="-2.2663155757"><ele>16.00</ele><time>2014-05-07T10:44:18Z</time></trkpt><trkpt lat="51.9818210788" lon="-2.2665551305"><ele>16.00</ele><time>2014-05-07T10:44:31Z</time></trkpt><trkpt lat="51.9817852043" lon="-2.2667767480"><ele>15.52</ele><time>2014-05-07T10:44:43Z</time></trkpt><trkpt lat="51.9817540236" lon="-2.2670375928"><ele>16.00</ele><time>2014-05-07T10:44:56Z</time></trkpt><trkpt lat="51.9817526825" lon="-2.2670831904"><ele>15.52</ele><time>2014-05-07T10:45:00Z</time></trkpt><trkpt lat="51.9817055762" lon="-2.2671661712"><ele>16.00</ele><time>2014-05-07T10:45:13Z</time></trkpt><trkpt lat="51.9817075040" lon="-2.2671710327"><ele>16.48</ele><time>2014-05-07T10:45:34Z</time></trkpt><trkpt lat="51.9817085098" lon="-2.2671749722"><ele>12.15</ele><time>2014-05-07T10:45:45Z</time></trkpt><trkpt lat="51.9817087613" lon="-2.2671749722"><ele>16.96</ele><time>2014-05-07T10:45:46Z</time></trkpt><trkpt lat="51.9817095995" lon="-2.2671758104"><ele>16.00</ele><time>2014-05-07T10:46:09Z</time></trkpt><trkpt lat="51.9817093480" lon="-2.2671763133"><ele>16.00</ele><time>2014-05-07T10:46:27Z</time></trkpt><trkpt lat="51.9817090128" lon="-2.2671816777"><ele>16.00</ele><time>2014-05-07T10:46:50Z</time></trkpt><trkpt lat="51.9817081746" lon="-2.2671864554"><ele>16.48</ele><time>2014-05-07T10:47:13Z</time></trkpt><trkpt lat="51.9817075878" lon="-2.2671924904"><ele>16.00</ele><time>2014-05-07T10:47:32Z</time></trkpt><trkpt lat="51.9817068335" lon="-2.2671961784"><ele>16.00</ele><time>2014-05-07T10:47:52Z</time></trkpt><trkpt lat="51.9817054924" lon="-2.2671991959"><ele>16.00</ele><time>2014-05-07T10:48:16Z</time></trkpt><trkpt lat="51.9817044027" lon="-2.2672067396"><ele>16.48</ele><time>2014-05-07T10:48:38Z</time></trkpt><trkpt lat="51.9817023072" lon="-2.2672171332"><ele>16.00</ele><time>2014-05-07T10:48:53Z</time></trkpt><trkpt lat="51.9817012176" lon="-2.2672276944"><ele>16.00</ele><time>2014-05-07T10:49:13Z</time></trkpt><trkpt lat="51.9817028940" lon="-2.2672434524"><ele>16.00</ele><time>2014-05-07T10:49:34Z</time></trkpt><trkpt lat="51.9817035645" lon="-2.2672478110"><ele>16.48</ele><time>2014-05-07T10:49:56Z</time></trkpt><trkpt lat="51.9817047380" lon="-2.2672535107"><ele>16.00</ele><time>2014-05-07T10:50:20Z</time></trkpt><trkpt lat="51.9817049894" lon="-2.2672546003"><ele>16.48</ele><time>2014-05-07T10:50:35Z</time></trkpt><trkpt lat="51.9817064144" lon="-2.2672582883"><ele>16.00</ele><time>2014-05-07T10:50:56Z</time></trkpt><trkpt lat="51.9817064144" lon="-2.2672605515"><ele>12.15</ele><time>2014-05-07T10:51:13Z</time></trkpt><trkpt lat="51.9817064982" lon="-2.2672605515"><ele>16.48</ele><time>2014-05-07T10:51:14Z</time></trkpt><trkpt lat="51.9817070849" lon="-2.2672610544"><ele>17.92</ele><time>2014-05-07T10:51:28Z</time></trkpt><trkpt lat="51.9817072526" lon="-2.2672612220"><ele>16.00</ele><time>2014-05-07T10:51:30Z</time></trkpt><trkpt lat="51.9817062467" lon="-2.2672639042"><ele>16.00</ele><time>2014-05-07T10:51:54Z</time></trkpt><trkpt lat="51.9817052409" lon="-2.2672773991"><ele>16.00</ele><time>2014-05-07T10:52:10Z</time></trkpt><trkpt lat="51.9817006309" lon="-2.2672833502"><ele>16.48</ele><time>2014-05-07T10:52:28Z</time></trkpt><trkpt lat="51.9817024749" lon="-2.2672867030"><ele>16.48</ele><time>2014-05-07T10:52:42Z</time></trkpt><trkpt lat="51.9817007147" lon="-2.2672885470"><ele>16.48</ele><time>2014-05-07T10:52:55Z</time></trkpt><trkpt lat="51.9816991221" lon="-2.2672850266"><ele>16.96</ele><time>2014-05-07T10:53:13Z</time></trkpt><trkpt lat="51.9816846214" lon="-2.2673124354"><ele>16.00</ele><time>2014-05-07T10:53:28Z</time></trkpt><trkpt lat="51.9816312287" lon="-2.2674024571"><ele>16.48</ele><time>2014-05-07T10:53:38Z</time></trkpt><trkpt lat="51.9816246070" lon="-2.2674297821"><ele>16.48</ele><time>2014-05-07T10:53:40Z</time></trkpt><trkpt lat="51.9815903250" lon="-2.2675150260"><ele>16.00</ele><time>2014-05-07T10:53:46Z</time></trkpt><trkpt lat="51.9815045781" lon="-2.2677049600"><ele>16.96</ele><time>2014-05-07T10:54:00Z</time></trkpt><trkpt lat="51.9814978726" lon="-2.2677202988"><ele>16.00</ele><time>2014-05-07T10:54:01Z</time></trkpt><trkpt lat="51.9814130478" lon="-2.2679008450"><ele>16.00</ele><time>2014-05-07T10:54:15Z</time></trkpt><trkpt lat="51.9813900813" lon="-2.2679690737"><ele>16.48</ele><time>2014-05-07T10:54:20Z</time></trkpt><trkpt lat="51.9813459087" lon="-2.2680873424"><ele>16.48</ele><time>2014-05-07T10:54:34Z</time></trkpt><trkpt lat="51.9813025743" lon="-2.2681799624"><ele>16.00</ele><time>2014-05-07T10:54:45Z</time></trkpt><trkpt lat="51.9812596589" lon="-2.2683395538"><ele>16.96</ele><time>2014-05-07T10:54:59Z</time></trkpt><trkpt lat="51.9812506065" lon="-2.2683506180"><ele>16.48</ele><time>2014-05-07T10:55:25Z</time></trkpt><trkpt lat="51.9812560547" lon="-2.2683568206"><ele>16.96</ele><time>2014-05-07T10:55:42Z</time></trkpt><trkpt lat="51.9812265504" lon="-2.2683387995"><ele>16.96</ele><time>2014-05-07T10:55:59Z</time></trkpt><trkpt lat="51.9812216051" lon="-2.2683473490"><ele>16.00</ele><time>2014-05-07T10:56:16Z</time></trkpt><trkpt lat="51.9812154025" lon="-2.2684375383"><ele>16.00</ele><time>2014-05-07T10:56:27Z</time></trkpt><trkpt lat="51.9811890833" lon="-2.2685337625"><ele>16.48</ele><time>2014-05-07T10:56:33Z</time></trkpt><trkpt lat="51.9811468385" lon="-2.2685874905"><ele>16.00</ele><time>2014-05-07T10:56:37Z</time></trkpt><trkpt lat="51.9811237883" lon="-2.2685977165"><ele>16.48</ele><time>2014-05-07T10:56:39Z</time></trkpt><trkpt lat="51.9810926076" lon="-2.2686713934"><ele>16.48</ele><time>2014-05-07T10:56:45Z</time></trkpt><trkpt lat="51.9810667075" lon="-2.2687029932"><ele>16.48</ele><time>2014-05-07T10:56:48Z</time></trkpt><trkpt lat="51.9810039271" lon="-2.2687796876"><ele>16.00</ele><time>2014-05-07T10:56:56Z</time></trkpt><trkpt lat="51.9809097983" lon="-2.2689311486"><ele>16.96</ele><time>2014-05-07T10:57:10Z</time></trkpt><trkpt lat="51.9808896817" lon="-2.2689593956"><ele>16.48</ele><time>2014-05-07T10:57:13Z</time></trkpt><trkpt lat="51.9808444194" lon="-2.2690031491"><ele>15.52</ele><time>2014-05-07T10:57:19Z</time></trkpt><trkpt lat="51.9808104727" lon="-2.2690221760"><ele>16.00</ele><time>2014-05-07T10:57:23Z</time></trkpt><trkpt lat="51.9807403162" lon="-2.2690811008"><ele>15.52</ele><time>2014-05-07T10:57:32Z</time></trkpt><trkpt lat="51.9806404877" lon="-2.2691525985"><ele>15.52</ele><time>2014-05-07T10:57:44Z</time></trkpt><trkpt lat="51.9805995002" lon="-2.2691804264"><ele>15.52</ele><time>2014-05-07T10:57:48Z</time></trkpt><trkpt lat="51.9805422518" lon="-2.2692217492"><ele>16.00</ele><time>2014-05-07T10:57:54Z</time></trkpt><trkpt lat="51.9805032760" lon="-2.2692427039"><ele>16.00</ele><time>2014-05-07T10:57:58Z</time></trkpt><trkpt lat="51.9804011844" lon="-2.2692929115"><ele>16.00</ele><time>2014-05-07T10:58:09Z</time></trkpt><trkpt lat="51.9802642241" lon="-2.2693908960"><ele>14.08</ele><time>2014-05-07T10:58:23Z</time></trkpt><trkpt lat="51.9802412577" lon="-2.2694084141"><ele>15.04</ele><time>2014-05-07T10:58:25Z</time></trkpt><trkpt lat="51.9800607115" lon="-2.2695939057"><ele>16.00</ele><time>2014-05-07T10:58:42Z</time></trkpt><trkpt lat="51.9800075702" lon="-2.2695759684"><ele>15.52</ele><time>2014-05-07T10:58:49Z</time></trkpt><trkpt lat="51.9799846876" lon="-2.2695671674"><ele>16.48</ele><time>2014-05-07T10:59:01Z</time></trkpt><trkpt lat="51.9799879566" lon="-2.2695678379"><ele>15.52</ele><time>2014-05-07T10:59:24Z</time></trkpt><trkpt lat="51.9799343124" lon="-2.2696208954"><ele>16.48</ele><time>2014-05-07T10:59:38Z</time></trkpt><trkpt lat="51.9798673410" lon="-2.2696507350"><ele>16.48</ele><time>2014-05-07T10:59:47Z</time></trkpt><trkpt lat="51.9797344878" lon="-2.2696969192"><ele>16.48</ele><time>2014-05-07T11:00:01Z</time></trkpt><trkpt lat="51.9796077535" lon="-2.2697337996"><ele>16.96</ele><time>2014-05-07T11:00:14Z</time></trkpt><trkpt lat="51.9794676080" lon="-2.2697853483"><ele>16.48</ele><time>2014-05-07T11:00:28Z</time></trkpt><trkpt lat="51.9794053305" lon="-2.2698016092"><ele>17.44</ele><time>2014-05-07T11:00:34Z</time></trkpt><trkpt lat="51.9793599844" lon="-2.2698184568"><ele>16.96</ele><time>2014-05-07T11:00:39Z</time></trkpt><trkpt lat="51.9792585634" lon="-2.2698549181"><ele>18.40</ele><time>2014-05-07T11:00:49Z</time></trkpt><trkpt lat="51.9791008160" lon="-2.2698934749"><ele>17.92</ele><time>2014-05-07T11:01:03Z</time></trkpt><trkpt lat="51.9790932722" lon="-2.2699018568"><ele>18.40</ele><time>2014-05-07T11:01:04Z</time></trkpt><trkpt lat="51.9790760893" lon="-2.2699128371"><ele>18.88</ele><time>2014-05-07T11:01:06Z</time></trkpt><trkpt lat="51.9789694715" lon="-2.2699629609"><ele>18.88</ele><time>2014-05-07T11:01:17Z</time></trkpt><trkpt lat="51.9788967166" lon="-2.2699793056"><ele>18.40</ele><time>2014-05-07T11:01:25Z</time></trkpt><trkpt lat="51.9787433278" lon="-2.2700252384"><ele>18.88</ele><time>2014-05-07T11:01:42Z</time></trkpt><trkpt lat="51.9787211157" lon="-2.2700249031"><ele>18.40</ele><time>2014-05-07T11:01:44Z</time></trkpt><trkpt lat="51.9786081277" lon="-2.2700602747"><ele>18.40</ele><time>2014-05-07T11:01:54Z</time></trkpt><trkpt lat="51.9786123186" lon="-2.2703212872"><ele>18.40</ele><time>2014-05-07T11:02:09Z</time></trkpt><trkpt lat="51.9786071219" lon="-2.2705665417"><ele>18.40</ele><time>2014-05-07T11:02:23Z</time></trkpt><trkpt lat="51.9786082953" lon="-2.2705973033"><ele>18.40</ele><time>2014-05-07T11:02:25Z</time></trkpt><trkpt lat="51.9786072895" lon="-2.2708332539"><ele>18.40</ele><time>2014-05-07T11:02:40Z</time></trkpt><trkpt lat="51.9786006678" lon="-2.2709634248"><ele>17.92</ele><time>2014-05-07T11:02:53Z</time></trkpt><trkpt lat="51.9786033500" lon="-2.2709590662"><ele>18.40</ele><time>2014-05-07T11:03:15Z</time></trkpt><trkpt lat="51.9786037691" lon="-2.2709592339"><ele>18.40</ele><time>2014-05-07T11:03:41Z</time></trkpt><trkpt lat="51.9785691518" lon="-2.2709564678"><ele>18.88</ele><time>2014-05-07T11:03:56Z</time></trkpt><trkpt lat="51.9785570819" lon="-2.2709758300"><ele>17.92</ele><time>2014-05-07T11:04:14Z</time></trkpt><trkpt lat="51.9785357080" lon="-2.2709724773"><ele>18.40</ele><time>2014-05-07T11:04:17Z</time></trkpt><trkpt lat="51.9785098080" lon="-2.2709829547"><ele>17.92</ele><time>2014-05-07T11:04:19Z</time></trkpt><trkpt lat="51.9783943053" lon="-2.2709806915"><ele>18.40</ele><time>2014-05-07T11:04:28Z</time></trkpt><trkpt lat="51.9782804791" lon="-2.2710442264"><ele>18.40</ele><time>2014-05-07T11:04:41Z</time></trkpt><trkpt lat="51.9782401621" lon="-2.2710588109"><ele>18.88</ele><time>2014-05-07T11:04:45Z</time></trkpt><trkpt lat="51.9782189559" lon="-2.2710610740"><ele>18.88</ele><time>2014-05-07T11:04:47Z</time></trkpt><trkpt lat="51.9781649765" lon="-2.2710658517"><ele>18.40</ele><time>2014-05-07T11:04:52Z</time></trkpt><trkpt lat="51.9780571852" lon="-2.2710765805"><ele>19.36</ele><time>2014-05-07T11:05:03Z</time></trkpt><trkpt lat="51.9779447000" lon="-2.2711072583"><ele>18.88</ele><time>2014-05-07T11:05:14Z</time></trkpt><trkpt lat="51.9778228272" lon="-2.2711262852"><ele>17.92</ele><time>2014-05-07T11:05:26Z</time></trkpt><trkpt lat="51.9778117631" lon="-2.2711270396"><ele>18.40</ele><time>2014-05-07T11:05:27Z</time></trkpt><trkpt lat="51.9777443726" lon="-2.2711370979"><ele>18.88</ele><time>2014-05-07T11:05:34Z</time></trkpt><trkpt lat="51.9776598830" lon="-2.2711617406"><ele>19.36</ele><time>2014-05-07T11:05:43Z</time></trkpt><trkpt lat="51.9776218291" lon="-2.2711667698"><ele>18.40</ele><time>2014-05-07T11:05:47Z</time></trkpt><trkpt lat="51.9775473140" lon="-2.2711819410"><ele>19.84</ele><time>2014-05-07T11:05:56Z</time></trkpt><trkpt lat="51.9775028899" lon="-2.2711767443"><ele>19.36</ele><time>2014-05-07T11:06:00Z</time></trkpt><trkpt lat="51.9774447195" lon="-2.2711774986"><ele>19.36</ele><time>2014-05-07T11:06:05Z</time></trkpt><trkpt lat="51.9773431309" lon="-2.2712129541"><ele>19.84</ele><time>2014-05-07T11:06:15Z</time></trkpt><trkpt lat="51.9772289693" lon="-2.2712289635"><ele>21.29</ele><time>2014-05-07T11:06:27Z</time></trkpt><trkpt lat="51.9771432225" lon="-2.2712195758"><ele>20.32</ele><time>2014-05-07T11:06:37Z</time></trkpt><trkpt lat="51.9771214295" lon="-2.2712171450"><ele>20.81</ele><time>2014-05-07T11:06:39Z</time></trkpt><trkpt lat="51.9770949427" lon="-2.2712220065"><ele>20.81</ele><time>2014-05-07T11:06:42Z</time></trkpt><trkpt lat="51.9769985508" lon="-2.2712619044"><ele>21.29</ele><time>2014-05-07T11:06:52Z</time></trkpt><trkpt lat="51.9769708905" lon="-2.2712603956"><ele>21.77</ele><time>2014-05-07T11:07:03Z</time></trkpt><trkpt lat="51.9769538753" lon="-2.2712539416"><ele>22.25</ele><time>2014-05-07T11:07:21Z</time></trkpt><trkpt lat="51.9769382849" lon="-2.2712458111"><ele>22.73</ele><time>2014-05-07T11:07:23Z</time></trkpt><trkpt lat="51.9769074395" lon="-2.2712481581"><ele>22.73</ele><time>2014-05-07T11:07:26Z</time></trkpt><trkpt lat="51.9768776000" lon="-2.2712267004"><ele>22.73</ele><time>2014-05-07T11:07:29Z</time></trkpt><trkpt lat="51.9768050965" lon="-2.2712584678"><ele>22.25</ele><time>2014-05-07T11:07:36Z</time></trkpt><trkpt lat="51.9766921923" lon="-2.2713500820"><ele>23.21</ele><time>2014-05-07T11:07:49Z</time></trkpt><trkpt lat="51.9766896777" lon="-2.2713422868"><ele>23.21</ele><time>2014-05-07T11:08:03Z</time></trkpt><trkpt lat="51.9766577426" lon="-2.2712585516"><ele>23.21</ele><time>2014-05-07T11:08:12Z</time></trkpt><trkpt lat="51.9766356144" lon="-2.2711883113"><ele>23.21</ele><time>2014-05-07T11:08:16Z</time></trkpt><trkpt lat="51.9766105525" lon="-2.2709871456"><ele>25.13</ele><time>2014-05-07T11:08:31Z</time></trkpt><trkpt lat="51.9766092952" lon="-2.2709087748"><ele>25.13</ele><time>2014-05-07T11:08:45Z</time></trkpt><trkpt lat="51.9765994884" lon="-2.2708459105"><ele>26.57</ele><time>2014-05-07T11:09:00Z</time></trkpt><trkpt lat="51.9766039308" lon="-2.2707759216"><ele>25.61</ele><time>2014-05-07T11:09:11Z</time></trkpt><trkpt lat="51.9765977282" lon="-2.2707123030"><ele>24.65</ele><time>2014-05-07T11:09:22Z</time></trkpt><trkpt lat="51.9765716605" lon="-2.2706786077"><ele>26.57</ele><time>2014-05-07T11:09:28Z</time></trkpt><trkpt lat="51.9765045214" lon="-2.2706006560"><ele>26.09</ele><time>2014-05-07T11:09:36Z</time></trkpt><trkpt lat="51.9764251448" lon="-2.2705104668"><ele>27.05</ele><time>2014-05-07T11:09:46Z</time></trkpt><trkpt lat="51.9763885997" lon="-2.2704798728"><ele>26.57</ele><time>2014-05-07T11:09:51Z</time></trkpt><trkpt lat="51.9763730932" lon="-2.2704663780"><ele>25.61</ele><time>2014-05-07T11:09:53Z</time></trkpt><trkpt lat="51.9763330277" lon="-2.2704169247"><ele>27.05</ele><time>2014-05-07T11:10:04Z</time></trkpt><trkpt lat="51.9763234723" lon="-2.2704113927"><ele>27.53</ele><time>2014-05-07T11:10:19Z</time></trkpt><trkpt lat="51.9763158448" lon="-2.2704035975"><ele>27.53</ele><time>2014-05-07T11:10:30Z</time></trkpt><trkpt lat="51.9763191976" lon="-2.2703999095"><ele>27.05</ele><time>2014-05-07T11:10:45Z</time></trkpt><trkpt lat="51.9763202872" lon="-2.2703842353"><ele>27.53</ele><time>2014-05-07T11:11:05Z</time></trkpt><trkpt lat="51.9763201196" lon="-2.2703740932"><ele>27.05</ele><time>2014-05-07T11:11:19Z</time></trkpt><trkpt lat="51.9763202034" lon="-2.2703742608"><ele>27.05</ele><time>2014-05-07T11:11:43Z</time></trkpt><trkpt lat="51.9763201196" lon="-2.2703752667"><ele>27.05</ele><time>2014-05-07T11:12:01Z</time></trkpt><trkpt lat="51.9763199519" lon="-2.2703718301"><ele>27.53</ele><time>2014-05-07T11:12:22Z</time></trkpt><trkpt lat="51.9763171021" lon="-2.2703723330"><ele>27.05</ele><time>2014-05-07T11:12:39Z</time></trkpt><trkpt lat="51.9763020147" lon="-2.2703414876"><ele>28.02</ele><time>2014-05-07T11:12:51Z</time></trkpt><trkpt lat="51.9762906153" lon="-2.2703208681"><ele>28.02</ele><time>2014-05-07T11:12:53Z</time></trkpt><trkpt lat="51.9762696605" lon="-2.2703025118"><ele>27.53</ele><time>2014-05-07T11:12:56Z</time></trkpt><trkpt lat="51.9762604404" lon="-2.2702546511"><ele>27.05</ele><time>2014-05-07T11:12:59Z</time></trkpt><trkpt lat="51.9762516394" lon="-2.2702201176"><ele>27.53</ele><time>2014-05-07T11:13:01Z</time></trkpt><trkpt lat="51.9762212131" lon="-2.2701604385"><ele>27.53</ele><time>2014-05-07T11:13:05Z</time></trkpt><trkpt lat="51.9761442672" lon="-2.2699488793"><ele>27.53</ele><time>2014-05-07T11:13:20Z</time></trkpt><trkpt lat="51.9761002623" lon="-2.2698498052"><ele>28.50</ele><time>2014-05-07T11:13:33Z</time></trkpt><trkpt lat="51.9760886114" lon="-2.2698205523"><ele>28.50</ele><time>2014-05-07T11:13:46Z</time></trkpt><trkpt lat="51.9760845043" lon="-2.2698103264"><ele>28.50</ele><time>2014-05-07T11:14:05Z</time></trkpt><trkpt lat="51.9760826603" lon="-2.2698037047"><ele>28.02</ele><time>2014-05-07T11:14:25Z</time></trkpt><trkpt lat="51.9760804810" lon="-2.2698012739"><ele>29.46</ele><time>2014-05-07T11:14:50Z</time></trkpt><trkpt lat="51.9760781340" lon="-2.2698011063"><ele>27.53</ele><time>2014-05-07T11:15:05Z</time></trkpt><trkpt lat="51.9760777988" lon="-2.2698036209"><ele>28.50</ele><time>2014-05-07T11:15:21Z</time></trkpt><trkpt lat="51.9760790560" lon="-2.2698026150"><ele>29.46</ele><time>2014-05-07T11:15:41Z</time></trkpt><trkpt lat="51.9760760386" lon="-2.2697894555"><ele>28.50</ele><time>2014-05-07T11:15:57Z</time></trkpt><trkpt lat="51.9760752004" lon="-2.2697844263"><ele>28.98</ele><time>2014-05-07T11:16:10Z</time></trkpt><trkpt lat="51.9760757033" lon="-2.2697698418"><ele>29.46</ele><time>2014-05-07T11:16:34Z</time></trkpt><trkpt lat="51.9760777988" lon="-2.2697611246"><ele>28.98</ele><time>2014-05-07T11:17:00Z</time></trkpt><trkpt lat="51.9760798104" lon="-2.2697342187"><ele>28.98</ele><time>2014-05-07T11:17:08Z</time></trkpt><trkpt lat="51.9760738593" lon="-2.2696985118"><ele>28.98</ele><time>2014-05-07T11:17:10Z</time></trkpt><trkpt lat="51.9760304410" lon="-2.2695065662"><ele>28.50</ele><time>2014-05-07T11:17:23Z</time></trkpt><trkpt lat="51.9760079775" lon="-2.2693616431"><ele>28.02</ele><time>2014-05-07T11:17:32Z</time></trkpt><trkpt lat="51.9759656489" lon="-2.2691673506"><ele>28.02</ele><time>2014-05-07T11:17:44Z</time></trkpt><trkpt lat="51.9759248290" lon="-2.2689738963"><ele>28.50</ele><time>2014-05-07T11:17:56Z</time></trkpt><trkpt lat="51.9758943189" lon="-2.2687947750"><ele>28.02</ele><time>2014-05-07T11:18:07Z</time></trkpt><trkpt lat="51.9758840092" lon="-2.2687476687"><ele>28.02</ele><time>2014-05-07T11:18:10Z</time></trkpt><trkpt lat="51.9758517388" lon="-2.2685806174"><ele>28.50</ele><time>2014-05-07T11:18:21Z</time></trkpt><trkpt lat="51.9758240785" lon="-2.2684154101"><ele>28.98</ele><time>2014-05-07T11:18:32Z</time></trkpt><trkpt lat="51.9758119248" lon="-2.2683125641"><ele>28.98</ele><time>2014-05-07T11:18:39Z</time></trkpt><trkpt lat="51.9757851027" lon="-2.2681642044"><ele>28.98</ele><time>2014-05-07T11:18:49Z</time></trkpt><trkpt lat="51.9757731166" lon="-2.2680540662"><ele>28.98</ele><time>2014-05-07T11:18:56Z</time></trkpt><trkpt lat="51.9757325482" lon="-2.2678797226"><ele>29.46</ele><time>2014-05-07T11:19:06Z</time></trkpt><trkpt lat="51.9757013675" lon="-2.2676914651"><ele>29.94</ele><time>2014-05-07T11:19:18Z</time></trkpt><trkpt lat="51.9756826758" lon="-2.2675608750"><ele>29.46</ele><time>2014-05-07T11:19:26Z</time></trkpt><trkpt lat="51.9756570272" lon="-2.2673908062"><ele>29.94</ele><time>2014-05-07T11:19:38Z</time></trkpt><trkpt lat="51.9756280258" lon="-2.2671934124"><ele>29.94</ele><time>2014-05-07T11:19:50Z</time></trkpt><trkpt lat="51.9756117649" lon="-2.2670801729"><ele>29.94</ele><time>2014-05-07T11:19:58Z</time></trkpt><trkpt lat="51.9755883794" lon="-2.2669750638"><ele>29.94</ele><time>2014-05-07T11:20:05Z</time></trkpt><trkpt lat="51.9755501579" lon="-2.2667806037"><ele>29.46</ele><time>2014-05-07T11:20:16Z</time></trkpt><trkpt lat="51.9755309634" lon="-2.2666060086"><ele>28.02</ele><time>2014-05-07T11:20:26Z</time></trkpt><trkpt lat="51.9755285326" lon="-2.2665907536"><ele>28.50</ele><time>2014-05-07T11:20:40Z</time></trkpt><trkpt lat="51.9754758943" lon="-2.2665847186"><ele>28.02</ele><time>2014-05-07T11:20:45Z</time></trkpt><trkpt lat="51.9754541013" lon="-2.2665946092"><ele>27.53</ele><time>2014-05-07T11:20:47Z</time></trkpt><trkpt lat="51.9754300453" lon="-2.2666244488"><ele>28.02</ele><time>2014-05-07T11:20:49Z</time></trkpt><trkpt lat="51.9752817694" lon="-2.2667267919"><ele>27.53</ele><time>2014-05-07T11:21:02Z</time></trkpt><trkpt lat="51.9752603117" lon="-2.2667429689"><ele>28.50</ele><time>2014-05-07T11:21:04Z</time></trkpt><trkpt lat="51.9751931727" lon="-2.2667848784"><ele>28.50</ele><time>2014-05-07T11:21:10Z</time></trkpt><trkpt lat="51.9750809390" lon="-2.2668743134"><ele>28.98</ele><time>2014-05-07T11:21:20Z</time></trkpt><trkpt lat="51.9750167336" lon="-2.2669645865"><ele>28.98</ele><time>2014-05-07T11:21:27Z</time></trkpt><trkpt lat="51.9749063440" lon="-2.2671204899"><ele>29.46</ele><time>2014-05-07T11:21:39Z</time></trkpt><trkpt lat="51.9747847226" lon="-2.2672668379"><ele>28.02</ele><time>2014-05-07T11:21:54Z</time></trkpt><trkpt lat="51.9746268913" lon="-2.2673900519"><ele>27.53</ele><time>2014-05-07T11:22:10Z</time></trkpt><trkpt lat="51.9744659588" lon="-2.2675025370"><ele>27.53</ele><time>2014-05-07T11:22:24Z</time></trkpt><trkpt lat="51.9743779488" lon="-2.2675444465"><ele>27.05</ele><time>2014-05-07T11:22:32Z</time></trkpt><trkpt lat="51.9742419105" lon="-2.2676503938"><ele>26.57</ele><time>2014-05-07T11:22:47Z</time></trkpt><trkpt lat="51.9740974065" lon="-2.2677114978"><ele>26.09</ele><time>2014-05-07T11:23:00Z</time></trkpt><trkpt lat="51.9739223085" lon="-2.2677613702"><ele>26.09</ele><time>2014-05-07T11:23:16Z</time></trkpt><trkpt lat="51.9737950712" lon="-2.2677675728"><ele>26.09</ele><time>2014-05-07T11:23:26Z</time></trkpt><trkpt lat="51.9736581948" lon="-2.2677723505"><ele>26.09</ele><time>2014-05-07T11:23:37Z</time></trkpt><trkpt lat="51.9735211506" lon="-2.2677835822"><ele>26.09</ele><time>2014-05-07T11:23:51Z</time></trkpt><trkpt lat="51.9734008703" lon="-2.2677889466"><ele>25.13</ele><time>2014-05-07T11:24:04Z</time></trkpt><trkpt lat="51.9732985273" lon="-2.2677974124"><ele>25.13</ele><time>2014-05-07T11:24:13Z</time></trkpt><trkpt lat="51.9732639939" lon="-2.2677910421"><ele>25.13</ele><time>2014-05-07T11:24:16Z</time></trkpt><trkpt lat="51.9731244352" lon="-2.2677724343"><ele>25.13</ele><time>2014-05-07T11:24:29Z</time></trkpt><trkpt lat="51.9730583858" lon="-2.2677557543"><ele>25.13</ele><time>2014-05-07T11:24:35Z</time></trkpt><trkpt lat="51.9729780033" lon="-2.2677441034"><ele>25.61</ele><time>2014-05-07T11:24:43Z</time></trkpt><trkpt lat="51.9729308132" lon="-2.2677423432"><ele>25.13</ele><time>2014-05-07T11:24:47Z</time></trkpt><trkpt lat="51.9727744907" lon="-2.2677358054"><ele>24.17</ele><time>2014-05-07T11:25:01Z</time></trkpt><trkpt lat="51.9726117980" lon="-2.2676581889"><ele>23.69</ele><time>2014-05-07T11:25:16Z</time></trkpt><trkpt lat="51.9725416414" lon="-2.2675992642"><ele>23.21</ele><time>2014-05-07T11:25:25Z</time></trkpt><trkpt lat="51.9724667072" lon="-2.2675652336"><ele>23.69</ele><time>2014-05-07T11:25:33Z</time></trkpt><trkpt lat="51.9723266456" lon="-2.2674757987"><ele>23.69</ele><time>2014-05-07T11:25:45Z</time></trkpt><trkpt lat="51.9721334428" lon="-2.2674227413"><ele>23.21</ele><time>2014-05-07T11:26:00Z</time></trkpt><trkpt lat="51.9719619490" lon="-2.2674226575"><ele>23.21</ele><time>2014-05-07T11:26:15Z</time></trkpt><trkpt lat="51.9719301816" lon="-2.2674326319"><ele>23.21</ele><time>2014-05-07T11:26:18Z</time></trkpt><trkpt lat="51.9717851747" lon="-2.2674321290"><ele>22.73</ele><time>2014-05-07T11:26:32Z</time></trkpt><trkpt lat="51.9716146868" lon="-2.2673896328"><ele>23.21</ele><time>2014-05-07T11:26:48Z</time></trkpt><trkpt lat="51.9714306202" lon="-2.2673286125"><ele>22.73</ele><time>2014-05-07T11:27:02Z</time></trkpt><trkpt lat="51.9713071547" lon="-2.2673216555"><ele>23.21</ele><time>2014-05-07T11:27:13Z</time></trkpt><trkpt lat="51.9712435361" lon="-2.2673348151"><ele>22.73</ele><time>2014-05-07T11:27:19Z</time></trkpt><trkpt lat="51.9711181428" lon="-2.2673661634"><ele>23.21</ele><time>2014-05-07T11:27:32Z</time></trkpt><trkpt lat="51.9710405264" lon="-2.2673698515"><ele>22.73</ele><time>2014-05-07T11:27:38Z</time></trkpt><trkpt lat="51.9708662666" lon="-2.2673469689"><ele>22.73</ele><time>2014-05-07T11:27:56Z</time></trkpt><trkpt lat="51.9708169810" lon="-2.2672543488"><ele>23.69</ele><time>2014-05-07T11:28:09Z</time></trkpt><trkpt lat="51.9708362594" lon="-2.2671216633"><ele>23.21</ele><time>2014-05-07T11:28:22Z</time></trkpt><trkpt lat="51.9708415400" lon="-2.2670278698"><ele>23.21</ele><time>2014-05-07T11:28:29Z</time></trkpt><trkpt lat="51.9708511792" lon="-2.2669065837"><ele>24.17</ele><time>2014-05-07T11:28:36Z</time></trkpt><trkpt lat="51.9708443061" lon="-2.2668771632"><ele>24.17</ele><time>2014-05-07T11:28:38Z</time></trkpt><trkpt lat="51.9708321523" lon="-2.2667606547"><ele>24.17</ele><time>2014-05-07T11:28:48Z</time></trkpt><trkpt lat="51.9708251115" lon="-2.2667194996"><ele>23.69</ele><time>2014-05-07T11:28:51Z</time></trkpt><trkpt lat="51.9708247762" lon="-2.2666343395"><ele>23.69</ele><time>2014-05-07T11:28:56Z</time></trkpt><trkpt lat="51.9708254468" lon="-2.2665489279"><ele>22.73</ele><time>2014-05-07T11:29:01Z</time></trkpt><trkpt lat="51.9708145503" lon="-2.2664106265"><ele>23.21</ele><time>2014-05-07T11:29:10Z</time></trkpt><trkpt lat="51.9708181545" lon="-2.2663358599"><ele>22.73</ele><time>2014-05-07T11:29:14Z</time></trkpt><trkpt lat="51.9708163943" lon="-2.2662574891"><ele>23.21</ele><time>2014-05-07T11:29:18Z</time></trkpt><trkpt lat="51.9708293024" lon="-2.2661468480"><ele>22.73</ele><time>2014-05-07T11:29:25Z</time></trkpt><trkpt lat="51.9708228484" lon="-2.2660574131"><ele>22.25</ele><time>2014-05-07T11:29:30Z</time></trkpt><trkpt lat="51.9708225131" lon="-2.2659732588"><ele>22.73</ele><time>2014-05-07T11:29:34Z</time></trkpt><trkpt lat="51.9708306435" lon="-2.2659189440"><ele>22.73</ele><time>2014-05-07T11:29:37Z</time></trkpt><trkpt lat="51.9708351698" lon="-2.2657014336"><ele>22.73</ele><time>2014-05-07T11:29:50Z</time></trkpt><trkpt lat="51.9708301406" lon="-2.2656217217"><ele>22.73</ele><time>2014-05-07T11:30:03Z</time></trkpt><trkpt lat="51.9708316494" lon="-2.2656166088"><ele>22.73</ele><time>2014-05-07T11:30:22Z</time></trkpt><trkpt lat="51.9708298054" lon="-2.2656066343"><ele>22.25</ele><time>2014-05-07T11:30:40Z</time></trkpt><trkpt lat="51.9708344992" lon="-2.2655855119"><ele>22.25</ele><time>2014-05-07T11:30:48Z</time></trkpt><trkpt lat="51.9708531071" lon="-2.2654163651"><ele>22.73</ele><time>2014-05-07T11:31:00Z</time></trkpt><trkpt lat="51.9708623271" lon="-2.2653613798"><ele>22.25</ele><time>2014-05-07T11:31:05Z</time></trkpt><trkpt lat="51.9708794262" lon="-2.2652482241"><ele>22.73</ele><time>2014-05-07T11:31:13Z</time></trkpt><trkpt lat="51.9709196594" lon="-2.2650370002"><ele>21.77</ele><time>2014-05-07T11:31:26Z</time></trkpt><trkpt lat="51.9709249400" lon="-2.2650232539"><ele>21.77</ele><time>2014-05-07T11:31:27Z</time></trkpt><trkpt lat="51.9709494151" lon="-2.2649348248"><ele>22.25</ele><time>2014-05-07T11:31:33Z</time></trkpt><trkpt lat="51.9709577970" lon="-2.2648339067"><ele>22.73</ele><time>2014-05-07T11:31:39Z</time></trkpt><trkpt lat="51.9710146263" lon="-2.2646030691"><ele>21.77</ele><time>2014-05-07T11:31:53Z</time></trkpt><trkpt lat="51.9710463937" lon="-2.2644276358"><ele>23.21</ele><time>2014-05-07T11:32:04Z</time></trkpt><trkpt lat="51.9710782450" lon="-2.2642471734"><ele>21.77</ele><time>2014-05-07T11:32:16Z</time></trkpt><trkpt lat="51.9710725453" lon="-2.2642305773"><ele>21.77</ele><time>2014-05-07T11:32:31Z</time></trkpt><trkpt lat="51.9710745569" lon="-2.2642363608"><ele>22.25</ele><time>2014-05-07T11:32:55Z</time></trkpt><trkpt lat="51.9710735511" lon="-2.2642309126"><ele>22.25</ele><time>2014-05-07T11:33:13Z</time></trkpt><trkpt lat="51.9710840285" lon="-2.2642183397"><ele>21.77</ele><time>2014-05-07T11:33:27Z</time></trkpt><trkpt lat="51.9710996188" lon="-2.2641523741"><ele>21.77</ele><time>2014-05-07T11:33:42Z</time></trkpt><trkpt lat="51.9711012952" lon="-2.2640065290"><ele>21.29</ele><time>2014-05-07T11:33:50Z</time></trkpt><trkpt lat="51.9710962661" lon="-2.2639776953"><ele>21.77</ele><time>2014-05-07T11:33:52Z</time></trkpt><trkpt lat="51.9711008761" lon="-2.2639114782"><ele>21.29</ele><time>2014-05-07T11:33:57Z</time></trkpt><trkpt lat="51.9710984454" lon="-2.2637039423"><ele>21.29</ele><time>2014-05-07T11:34:09Z</time></trkpt><trkpt lat="51.9710997865" lon="-2.2636857536"><ele>21.29</ele><time>2014-05-07T11:34:10Z</time></trkpt><trkpt lat="51.9710878003" lon="-2.2636036109"><ele>21.29</ele><time>2014-05-07T11:34:15Z</time></trkpt><trkpt lat="51.9710759819" lon="-2.2633771319"><ele>21.77</ele><time>2014-05-07T11:34:29Z</time></trkpt><trkpt lat="51.9710749760" lon="-2.2632907145"><ele>21.77</ele><time>2014-05-07T11:34:41Z</time></trkpt><trkpt lat="51.9710786641" lon="-2.2632680833"><ele>20.81</ele><time>2014-05-07T11:35:01Z</time></trkpt><trkpt lat="51.9710743055" lon="-2.2632581089"><ele>20.81</ele><time>2014-05-07T11:35:28Z</time></trkpt><trkpt lat="51.9710733835" lon="-2.2632509004"><ele>21.77</ele><time>2014-05-07T11:35:47Z</time></trkpt><trkpt lat="51.9710701983" lon="-2.2632437758"><ele>21.77</ele><time>2014-05-07T11:36:06Z</time></trkpt><trkpt lat="51.9710707851" lon="-2.2632330470"><ele>20.81</ele><time>2014-05-07T11:36:23Z</time></trkpt><trkpt lat="51.9710686896" lon="-2.2632236592"><ele>22.25</ele><time>2014-05-07T11:36:43Z</time></trkpt><trkpt lat="51.9710681867" lon="-2.2631993517"><ele>21.29</ele><time>2014-05-07T11:36:58Z</time></trkpt><trkpt lat="51.9710811786" lon="-2.2631385829"><ele>22.73</ele><time>2014-05-07T11:37:09Z</time></trkpt><trkpt lat="51.9710893091" lon="-2.2631244175"><ele>22.73</ele><time>2014-05-07T11:37:29Z</time></trkpt><trkpt lat="51.9711826835" lon="-2.2629897203"><ele>22.25</ele><time>2014-05-07T11:37:44Z</time></trkpt><trkpt lat="51.9712237548" lon="-2.2629206534"><ele>22.25</ele><time>2014-05-07T11:37:50Z</time></trkpt><trkpt lat="51.9713223260" lon="-2.2627552785"><ele>21.77</ele><time>2014-05-07T11:38:04Z</time></trkpt><trkpt lat="51.9713549316" lon="-2.2626689449"><ele>21.77</ele><time>2014-05-07T11:38:10Z</time></trkpt><trkpt lat="51.9713681750" lon="-2.2626302205"><ele>21.77</ele><time>2014-05-07T11:38:13Z</time></trkpt><trkpt lat="51.9713833462" lon="-2.2625984531"><ele>22.25</ele><time>2014-05-07T11:38:16Z</time></trkpt><trkpt lat="51.9713639002" lon="-2.2624590620"><ele>22.73</ele><time>2014-05-07T11:38:28Z</time></trkpt><trkpt lat="51.9713624753" lon="-2.2624539491"><ele>21.77</ele><time>2014-05-07T11:38:29Z</time></trkpt><trkpt lat="51.9713516627" lon="-2.2623667773"><ele>22.73</ele><time>2014-05-07T11:38:36Z</time></trkpt><trkpt lat="51.9713329710" lon="-2.2622785997"><ele>22.73</ele><time>2014-05-07T11:38:42Z</time></trkpt><trkpt lat="51.9713211525" lon="-2.2620666213"><ele>21.77</ele><time>2014-05-07T11:38:54Z</time></trkpt><trkpt lat="51.9713291153" lon="-2.2619274817"><ele>22.25</ele><time>2014-05-07T11:39:03Z</time></trkpt><trkpt lat="51.9712359924" lon="-2.2617169283"><ele>22.73</ele><time>2014-05-07T11:39:17Z</time></trkpt><trkpt lat="51.9712249283" lon="-2.2617111448"><ele>22.25</ele><time>2014-05-07T11:39:18Z</time></trkpt><trkpt lat="51.9711852819" lon="-2.2617082950"><ele>21.77</ele><time>2014-05-07T11:39:22Z</time></trkpt><trkpt lat="51.9711486530" lon="-2.2616826463"><ele>22.25</ele><time>2014-05-07T11:39:26Z</time></trkpt><trkpt lat="51.9711154606" lon="-2.2616768628"><ele>22.25</ele><time>2014-05-07T11:39:29Z</time></trkpt><trkpt lat="51.9710727129" lon="-2.2616216261"><ele>21.77</ele><time>2014-05-07T11:39:34Z</time></trkpt><trkpt lat="51.9710050710" lon="-2.2615681496"><ele>21.29</ele><time>2014-05-07T11:39:41Z</time></trkpt><trkpt lat="51.9709543604" lon="-2.2615067940"><ele>21.77</ele><time>2014-05-07T11:39:57Z</time></trkpt><trkpt lat="51.9709547795" lon="-2.2615057044"><ele>21.77</ele><time>2014-05-07T11:40:20Z</time></trkpt><trkpt lat="51.9709563721" lon="-2.2615049500"><ele>21.77</ele><time>2014-05-07T11:40:48Z</time></trkpt><trkpt lat="51.9709533546" lon="-2.2615041118"><ele>21.77</ele><time>2014-05-07T11:41:09Z</time></trkpt><trkpt lat="51.9709565397" lon="-2.2614737693"><ele>21.77</ele><time>2014-05-07T11:41:23Z</time></trkpt><trkpt lat="51.9709251076" lon="-2.2614180297"><ele>21.29</ele><time>2014-05-07T11:41:39Z</time></trkpt><trkpt lat="51.9709462300" lon="-2.2611486353"><ele>20.81</ele><time>2014-05-07T11:41:53Z</time></trkpt><trkpt lat="51.9709919952" lon="-2.2609092481"><ele>21.29</ele><time>2014-05-07T11:42:06Z</time></trkpt><trkpt lat="51.9709943421" lon="-2.2608957533"><ele>20.81</ele><time>2014-05-07T11:42:07Z</time></trkpt><trkpt lat="51.9710075017" lon="-2.2608416900"><ele>20.81</ele><time>2014-05-07T11:42:10Z</time></trkpt><trkpt lat="51.9710336532" lon="-2.2607009578"><ele>20.81</ele><time>2014-05-07T11:42:18Z</time></trkpt><trkpt lat="51.9710477348" lon="-2.2606325615"><ele>20.81</ele><time>2014-05-07T11:42:36Z</time></trkpt><trkpt lat="51.9710507523" lon="-2.2606308013"><ele>19.84</ele><time>2014-05-07T11:42:58Z</time></trkpt><trkpt lat="51.9710423704" lon="-2.2606059071"><ele>20.32</ele><time>2014-05-07T11:43:13Z</time></trkpt><trkpt lat="51.9710372575" lon="-2.2605938371"><ele>19.84</ele><time>2014-05-07T11:43:29Z</time></trkpt><trkpt lat="51.9710365031" lon="-2.2605888080"><ele>23.21</ele><time>2014-05-07T11:43:31Z</time></trkpt><trkpt lat="51.9710423704" lon="-2.2605858743"><ele>19.84</ele><time>2014-05-07T11:43:35Z</time></trkpt><trkpt lat="51.9710375927" lon="-2.2605867125"><ele>19.84</ele><time>2014-05-07T11:43:53Z</time></trkpt><trkpt lat="51.9710327312" lon="-2.2605880536"><ele>19.84</ele><time>2014-05-07T11:44:12Z</time></trkpt><trkpt lat="51.9710597210" lon="-2.2604261991"><ele>20.32</ele><time>2014-05-07T11:44:23Z</time></trkpt><trkpt lat="51.9711592142" lon="-2.2602105327"><ele>19.36</ele><time>2014-05-07T11:44:37Z</time></trkpt><trkpt lat="51.9712323882" lon="-2.2600359377"><ele>18.88</ele><time>2014-05-07T11:44:49Z</time></trkpt><trkpt lat="51.9712396804" lon="-2.2599700559"><ele>17.92</ele><time>2014-05-07T11:44:59Z</time></trkpt><trkpt lat="51.9712529238" lon="-2.2598991450"><ele>18.88</ele><time>2014-05-07T11:45:13Z</time></trkpt><trkpt lat="51.9712534267" lon="-2.2598868236"><ele>18.88</ele><time>2014-05-07T11:45:14Z</time></trkpt><trkpt lat="51.9712472241" lon="-2.2597636096"><ele>18.88</ele><time>2014-05-07T11:45:22Z</time></trkpt><trkpt lat="51.9712437876" lon="-2.2596191056"><ele>17.92</ele><time>2014-05-07T11:45:31Z</time></trkpt><trkpt lat="51.9712361600" lon="-2.2595331911"><ele>17.92</ele><time>2014-05-07T11:45:36Z</time></trkpt><trkpt lat="51.9712227490" lon="-2.2594886832"><ele>17.92</ele><time>2014-05-07T11:45:39Z</time></trkpt><trkpt lat="51.9712162111" lon="-2.2592982464"><ele>17.92</ele><time>2014-05-07T11:45:50Z</time></trkpt><trkpt lat="51.9712048955" lon="-2.2592410818"><ele>17.92</ele><time>2014-05-07T11:45:56Z</time></trkpt><trkpt lat="51.9711572863" lon="-2.2591604479"><ele>17.92</ele><time>2014-05-07T11:46:06Z</time></trkpt><trkpt lat="51.9711515866" lon="-2.2591302730"><ele>16.96</ele><time>2014-05-07T11:46:08Z</time></trkpt><trkpt lat="51.9711050671" lon="-2.2590215597"><ele>16.96</ele><time>2014-05-07T11:46:20Z</time></trkpt><trkpt lat="51.9710971043" lon="-2.2589779738"><ele>17.92</ele><time>2014-05-07T11:46:28Z</time></trkpt><trkpt lat="51.9711197354" lon="-2.2588320449"><ele>16.96</ele><time>2014-05-07T11:46:39Z</time></trkpt><trkpt lat="51.9711353257" lon="-2.2587757185"><ele>16.48</ele><time>2014-05-07T11:46:54Z</time></trkpt><trkpt lat="51.9711365830" lon="-2.2588094976"><ele>16.96</ele><time>2014-05-07T11:46:56Z</time></trkpt><trkpt lat="51.9710788317" lon="-2.2588979267"><ele>16.48</ele><time>2014-05-07T11:47:06Z</time></trkpt><trkpt lat="51.9710772391" lon="-2.2588992678"><ele>17.44</ele><time>2014-05-07T11:47:08Z</time></trkpt><trkpt lat="51.9710753113" lon="-2.2588944063"><ele>16.96</ele><time>2014-05-07T11:47:09Z</time></trkpt><trkpt lat="51.9711067434" lon="-2.2589229047"><ele>16.48</ele><time>2014-05-07T11:47:12Z</time></trkpt><trkpt lat="51.9711079169" lon="-2.2590138484"><ele>16.96</ele><time>2014-05-07T11:47:22Z</time></trkpt><trkpt lat="51.9711076654" lon="-2.2590145189"><ele>16.96</ele><time>2014-05-07T11:47:23Z</time></trkpt><trkpt lat="51.9709997065" lon="-2.2590396646"><ele>17.44</ele><time>2014-05-07T11:47:34Z</time></trkpt><trkpt lat="51.9709637482" lon="-2.2590344679"><ele>17.92</ele><time>2014-05-07T11:47:45Z</time></trkpt><trkpt lat="51.9709383510" lon="-2.2590009402"><ele>17.44</ele><time>2014-05-07T11:47:53Z</time></trkpt><trkpt lat="51.9709080085" lon="-2.2589722741"><ele>18.40</ele><time>2014-05-07T11:47:56Z</time></trkpt><trkpt lat="51.9708718825" lon="-2.2588130180"><ele>16.96</ele><time>2014-05-07T11:48:06Z</time></trkpt><trkpt lat="51.9708495867" lon="-2.2586646583"><ele>17.44</ele><time>2014-05-07T11:48:14Z</time></trkpt><trkpt lat="51.9708308950" lon="-2.2586174682"><ele>17.92</ele><time>2014-05-07T11:48:17Z</time></trkpt><trkpt lat="51.9708127901" lon="-2.2585549392"><ele>17.44</ele><time>2014-05-07T11:48:21Z</time></trkpt><trkpt lat="51.9707760774" lon="-2.2584587149"><ele>16.96</ele><time>2014-05-07T11:48:32Z</time></trkpt><trkpt lat="51.9707796816" lon="-2.2584582120"><ele>15.52</ele><time>2014-05-07T11:48:34Z</time></trkpt><trkpt lat="51.9707801845" lon="-2.2584643308"><ele>15.04</ele><time>2014-05-07T11:48:41Z</time></trkpt><trkpt lat="51.9707776699" lon="-2.2584729642"><ele>16.00</ele><time>2014-05-07T11:49:08Z</time></trkpt><trkpt lat="51.9707769156" lon="-2.2584670968"><ele>17.44</ele><time>2014-05-07T11:49:11Z</time></trkpt><trkpt lat="51.9707730599" lon="-2.2584634088"><ele>14.56</ele><time>2014-05-07T11:49:21Z</time></trkpt><trkpt lat="51.9707723893" lon="-2.2584631573"><ele>14.56</ele><time>2014-05-07T11:49:22Z</time></trkpt><trkpt lat="51.9707669411" lon="-2.2584524285"><ele>17.44</ele><time>2014-05-07T11:49:32Z</time></trkpt><trkpt lat="51.9707640074" lon="-2.2584398557"><ele>17.44</ele><time>2014-05-07T11:49:33Z</time></trkpt><trkpt lat="51.9707623310" lon="-2.2584220860"><ele>16.96</ele><time>2014-05-07T11:49:34Z</time></trkpt><trkpt lat="51.9707681984" lon="-2.2583924141"><ele>17.44</ele><time>2014-05-07T11:49:36Z</time></trkpt><trkpt lat="51.9707658514" lon="-2.2583267000"><ele>17.92</ele><time>2014-05-07T11:49:40Z</time></trkpt><trkpt lat="51.9707528595" lon="-2.2581689525"><ele>17.92</ele><time>2014-05-07T11:49:54Z</time></trkpt><trkpt lat="51.9707405381" lon="-2.2581614088"><ele>17.92</ele><time>2014-05-07T11:50:16Z</time></trkpt><trkpt lat="51.9707397837" lon="-2.2581568826"><ele>17.44</ele><time>2014-05-07T11:50:40Z</time></trkpt><trkpt lat="51.9707426336" lon="-2.2581443936"><ele>17.44</ele><time>2014-05-07T11:50:59Z</time></trkpt><trkpt lat="51.9707399514" lon="-2.2581365984"><ele>17.44</ele><time>2014-05-07T11:51:19Z</time></trkpt><trkpt lat="51.9707354251" lon="-2.2581246961"><ele>17.44</ele><time>2014-05-07T11:51:37Z</time></trkpt><trkpt lat="51.9707321562" lon="-2.2581127938"><ele>17.44</ele><time>2014-05-07T11:51:38Z</time></trkpt><trkpt lat="51.9707560446" lon="-2.2580506839"><ele>17.44</ele><time>2014-05-07T11:51:44Z</time></trkpt><trkpt lat="51.9708707090" lon="-2.2578974627"><ele>16.48</ele><time>2014-05-07T11:51:58Z</time></trkpt><trkpt lat="51.9709044043" lon="-2.2578601632"><ele>16.48</ele><time>2014-05-07T11:52:01Z</time></trkpt><trkpt lat="51.9709633291" lon="-2.2577882465"><ele>16.48</ele><time>2014-05-07T11:52:08Z</time></trkpt><trkpt lat="51.9710604753" lon="-2.2576514538"><ele>16.48</ele><time>2014-05-07T11:52:19Z</time></trkpt><trkpt lat="51.9711178076" lon="-2.2575414833"><ele>16.48</ele><time>2014-05-07T11:52:27Z</time></trkpt><trkpt lat="51.9711361639" lon="-2.2575047705"><ele>16.00</ele><time>2014-05-07T11:52:30Z</time></trkpt><trkpt lat="51.9712423626" lon="-2.2574125696"><ele>16.48</ele><time>2014-05-07T11:52:41Z</time></trkpt><trkpt lat="51.9713355694" lon="-2.2573528066"><ele>16.48</ele><time>2014-05-07T11:52:50Z</time></trkpt><trkpt lat="51.9713968411" lon="-2.2572761122"><ele>16.96</ele><time>2014-05-07T11:53:04Z</time></trkpt><trkpt lat="51.9713856932" lon="-2.2572736815"><ele>16.48</ele><time>2014-05-07T11:53:26Z</time></trkpt><trkpt lat="51.9713841006" lon="-2.2572676465"><ele>16.96</ele><time>2014-05-07T11:53:49Z</time></trkpt><trkpt lat="51.9713848550" lon="-2.2572641261"><ele>16.48</ele><time>2014-05-07T11:54:11Z</time></trkpt><trkpt lat="51.9713870343" lon="-2.2572646290"><ele>16.00</ele><time>2014-05-07T11:54:30Z</time></trkpt><trkpt lat="51.9713879563" lon="-2.2572619468"><ele>16.00</ele><time>2014-05-07T11:54:48Z</time></trkpt><trkpt lat="51.9714820851" lon="-2.2571425885"><ele>16.96</ele><time>2014-05-07T11:54:58Z</time></trkpt><trkpt lat="51.9714985136" lon="-2.2571181972"><ele>16.48</ele><time>2014-05-07T11:55:00Z</time></trkpt><trkpt lat="51.9716463704" lon="-2.2569441888"><ele>16.48</ele><time>2014-05-07T11:55:14Z</time></trkpt><trkpt lat="51.9717529044" lon="-2.2567767184"><ele>16.48</ele><time>2014-05-07T11:55:26Z</time></trkpt><trkpt lat="51.9718575105" lon="-2.2565804143"><ele>15.04</ele><time>2014-05-07T11:55:39Z</time></trkpt><trkpt lat="51.9718726818" lon="-2.2565568611"><ele>15.52</ele><time>2014-05-07T11:55:41Z</time></trkpt><trkpt lat="51.9719588477" lon="-2.2563428711"><ele>16.00</ele><time>2014-05-07T11:55:55Z</time></trkpt><trkpt lat="51.9719932973" lon="-2.2562777437"><ele>16.00</ele><time>2014-05-07T11:55:59Z</time></trkpt><trkpt lat="51.9720550720" lon="-2.2560818586"><ele>16.96</ele><time>2014-05-07T11:56:12Z</time></trkpt><trkpt lat="51.9720702432" lon="-2.2560420446"><ele>16.00</ele><time>2014-05-07T11:56:15Z</time></trkpt><trkpt lat="51.9721613545" lon="-2.2559025697"><ele>16.00</ele><time>2014-05-07T11:56:26Z</time></trkpt><trkpt lat="51.9721773639" lon="-2.2558784299"><ele>16.48</ele><time>2014-05-07T11:56:28Z</time></trkpt><trkpt lat="51.9722297508" lon="-2.2557991371"><ele>16.00</ele><time>2014-05-07T11:56:35Z</time></trkpt><trkpt lat="51.9722559862" lon="-2.2557871509"><ele>16.48</ele><time>2014-05-07T11:56:38Z</time></trkpt><trkpt lat="51.9723389670" lon="-2.2555887513"><ele>16.00</ele><time>2014-05-07T11:56:51Z</time></trkpt><trkpt lat="51.9723635260" lon="-2.2555402201"><ele>15.52</ele><time>2014-05-07T11:56:54Z</time></trkpt><trkpt lat="51.9723748416" lon="-2.2554333508"><ele>16.00</ele><time>2014-05-07T11:57:00Z</time></trkpt><trkpt lat="51.9723984785" lon="-2.2553109750"><ele>14.08</ele><time>2014-05-07T11:57:08Z</time></trkpt><trkpt lat="51.9724040106" lon="-2.2552772798"><ele>16.00</ele><time>2014-05-07T11:57:11Z</time></trkpt><trkpt lat="51.9724715687" lon="-2.2551310156"><ele>15.52</ele><time>2014-05-07T11:57:22Z</time></trkpt><trkpt lat="51.9725345168" lon="-2.2550548241"><ele>14.56</ele><time>2014-05-07T11:57:34Z</time></trkpt><trkpt lat="51.9726040866" lon="-2.2550229728"><ele>14.08</ele><time>2014-05-07T11:57:45Z</time></trkpt><trkpt lat="51.9726445712" lon="-2.2550598532"><ele>14.08</ele><time>2014-05-07T11:57:53Z</time></trkpt><trkpt lat="51.9727006461" lon="-2.2552837338"><ele>16.00</ele><time>2014-05-07T11:58:06Z</time></trkpt><trkpt lat="51.9727086090" lon="-2.2553187702"><ele>15.04</ele><time>2014-05-07T11:58:08Z</time></trkpt><trkpt lat="51.9727284741" lon="-2.2553487774"><ele>15.04</ele><time>2014-05-07T11:58:10Z</time></trkpt><trkpt lat="51.9727653544" lon="-2.2554746736"><ele>15.52</ele><time>2014-05-07T11:58:18Z</time></trkpt><trkpt lat="51.9727941044" lon="-2.2556031682"><ele>15.52</ele><time>2014-05-07T11:58:25Z</time></trkpt><trkpt lat="51.9727997202" lon="-2.2556557227"><ele>16.00</ele><time>2014-05-07T11:58:28Z</time></trkpt><trkpt lat="51.9728478324" lon="-2.2557938565"><ele>15.52</ele><time>2014-05-07T11:58:39Z</time></trkpt><trkpt lat="51.9728579745" lon="-2.2558171581"><ele>16.00</ele><time>2014-05-07T11:58:41Z</time></trkpt><trkpt lat="51.9729059190" lon="-2.2559559625"><ele>16.48</ele><time>2014-05-07T11:58:51Z</time></trkpt><trkpt lat="51.9729184918" lon="-2.2560099419"><ele>16.96</ele><time>2014-05-07T11:59:04Z</time></trkpt><trkpt lat="51.9729203358" lon="-2.2560114507"><ele>16.96</ele><time>2014-05-07T11:59:22Z</time></trkpt><trkpt lat="51.9729209226" lon="-2.2560032364"><ele>16.96</ele><time>2014-05-07T11:59:47Z</time></trkpt><trkpt lat="51.9729183242" lon="-2.2559987940"><ele>16.96</ele><time>2014-05-07T12:00:06Z</time></trkpt><trkpt lat="51.9729190785" lon="-2.2559998836"><ele>16.96</ele><time>2014-05-07T12:00:29Z</time></trkpt><trkpt lat="51.9729203358" lon="-2.2559962794"><ele>16.96</ele><time>2014-05-07T12:00:57Z</time></trkpt><trkpt lat="51.9729214255" lon="-2.2559944354"><ele>16.48</ele><time>2014-05-07T12:01:28Z</time></trkpt><trkpt lat="51.9729189947" lon="-2.2559940163"><ele>16.96</ele><time>2014-05-07T12:01:58Z</time></trkpt><trkpt lat="51.9729179889" lon="-2.2559915017"><ele>16.48</ele><time>2014-05-07T12:02:30Z</time></trkpt><trkpt lat="51.9729226828" lon="-2.2559920046"><ele>16.96</ele><time>2014-05-07T12:02:55Z</time></trkpt><trkpt lat="51.9729324896" lon="-2.2559913341"><ele>16.96</ele><time>2014-05-07T12:03:20Z</time></trkpt><trkpt lat="51.9729352556" lon="-2.2559897415"><ele>17.92</ele><time>2014-05-07T12:03:38Z</time></trkpt><trkpt lat="51.9729540311" lon="-2.2559904959"><ele>16.96</ele><time>2014-05-07T12:03:53Z</time></trkpt><trkpt lat="51.9729867205" lon="-2.2559655178"><ele>17.44</ele><time>2014-05-07T12:03:57Z</time></trkpt><trkpt lat="51.9730443042" lon="-2.2558753286"><ele>17.92</ele><time>2014-05-07T12:04:05Z</time></trkpt><trkpt lat="51.9730825257" lon="-2.2558045015"><ele>17.92</ele><time>2014-05-07T12:04:11Z</time></trkpt><trkpt lat="51.9731460605" lon="-2.2556337621"><ele>16.96</ele><time>2014-05-07T12:04:24Z</time></trkpt><trkpt lat="51.9731886405" lon="-2.2554423194"><ele>17.44</ele><time>2014-05-07T12:04:36Z</time></trkpt><trkpt lat="51.9732338190" lon="-2.2552279104"><ele>16.48</ele><time>2014-05-07T12:04:50Z</time></trkpt><trkpt lat="51.9732629042" lon="-2.2551755235"><ele>16.48</ele><time>2014-05-07T12:04:54Z</time></trkpt><trkpt lat="51.9733649120" lon="-2.2549794707"><ele>16.48</ele><time>2014-05-07T12:05:08Z</time></trkpt><trkpt lat="51.9734625611" lon="-2.2548603639"><ele>16.00</ele><time>2014-05-07T12:05:20Z</time></trkpt><trkpt lat="51.9735476375" lon="-2.2547200508"><ele>16.00</ele><time>2014-05-07T12:05:33Z</time></trkpt><trkpt lat="51.9735656586" lon="-2.2547063883"><ele>16.00</ele><time>2014-05-07T12:05:54Z</time></trkpt><trkpt lat="51.9736216497" lon="-2.2546628024"><ele>15.52</ele><time>2014-05-07T12:05:59Z</time></trkpt><trkpt lat="51.9736888725" lon="-2.2546416800"><ele>15.52</ele><time>2014-05-07T12:06:05Z</time></trkpt><trkpt lat="51.9737317879" lon="-2.2546064761"><ele>15.52</ele><time>2014-05-07T12:06:10Z</time></trkpt><trkpt lat="51.9737588614" lon="-2.2545894608"><ele>15.04</ele><time>2014-05-07T12:06:13Z</time></trkpt><trkpt lat="51.9737877790" lon="-2.2545680869"><ele>15.52</ele><time>2014-05-07T12:06:16Z</time></trkpt><trkpt lat="51.9739086460" lon="-2.2545027919"><ele>16.48</ele><time>2014-05-07T12:06:29Z</time></trkpt><trkpt lat="51.9739099871" lon="-2.2544903867"><ele>15.04</ele><time>2014-05-07T12:06:45Z</time></trkpt><trkpt lat="51.9739097357" lon="-2.2544918954"><ele>16.00</ele><time>2014-05-07T12:06:48Z</time></trkpt><trkpt lat="51.9739233144" lon="-2.2544812504"><ele>16.00</ele><time>2014-05-07T12:07:08Z</time></trkpt><trkpt lat="51.9739192072" lon="-2.2544742934"><ele>16.00</ele><time>2014-05-07T12:07:19Z</time></trkpt><trkpt lat="51.9739224762" lon="-2.2544892132"><ele>16.00</ele><time>2014-05-07T12:07:32Z</time></trkpt><trkpt lat="51.9739236496" lon="-2.2545038816"><ele>16.00</ele><time>2014-05-07T12:07:47Z</time></trkpt><trkpt lat="51.9740091451" lon="-2.2544476390"><ele>16.48</ele><time>2014-05-07T12:07:55Z</time></trkpt><trkpt lat="51.9740958139" lon="-2.2543616407"><ele>16.00</ele><time>2014-05-07T12:08:03Z</time></trkpt><trkpt lat="51.9742523041" lon="-2.2542250995"><ele>16.48</ele><time>2014-05-07T12:08:17Z</time></trkpt><trkpt lat="51.9743261486" lon="-2.2541738022"><ele>15.52</ele><time>2014-05-07T12:08:24Z</time></trkpt><trkpt lat="51.9743465167" lon="-2.2541418672"><ele>16.00</ele><time>2014-05-07T12:08:27Z</time></trkpt><trkpt lat="51.9744645339" lon="-2.2540950961"><ele>16.00</ele><time>2014-05-07T12:08:38Z</time></trkpt><trkpt lat="51.9745600875" lon="-2.2540268674"><ele>15.52</ele><time>2014-05-07T12:08:52Z</time></trkpt><trkpt lat="51.9745498616" lon="-2.2540287953"><ele>15.52</ele><time>2014-05-07T12:09:08Z</time></trkpt><trkpt lat="51.9745561481" lon="-2.2540027276"><ele>16.00</ele><time>2014-05-07T12:09:26Z</time></trkpt><trkpt lat="51.9745509513" lon="-2.2539791744"><ele>16.00</ele><time>2014-05-07T12:09:39Z</time></trkpt><trkpt lat="51.9745501969" lon="-2.2539769113"><ele>15.52</ele><time>2014-05-07T12:10:06Z</time></trkpt><trkpt lat="51.9745454192" lon="-2.2539303917"><ele>15.52</ele><time>2014-05-07T12:10:18Z</time></trkpt><trkpt lat="51.9745106343" lon="-2.2537989635"><ele>16.48</ele><time>2014-05-07T12:10:29Z</time></trkpt><trkpt lat="51.9744926970" lon="-2.2537428886"><ele>16.00</ele><time>2014-05-07T12:10:32Z</time></trkpt><trkpt lat="51.9744761009" lon="-2.2536616679"><ele>16.48</ele><time>2014-05-07T12:10:37Z</time></trkpt><trkpt lat="51.9744189363" lon="-2.2534308303"><ele>16.00</ele><time>2014-05-07T12:10:50Z</time></trkpt><trkpt lat="51.9743481092" lon="-2.2531787027"><ele>16.48</ele><time>2014-05-07T12:11:04Z</time></trkpt><trkpt lat="51.9743045233" lon="-2.2530227993"><ele>16.96</ele><time>2014-05-07T12:11:12Z</time></trkpt><trkpt lat="51.9742866699" lon="-2.2529069614"><ele>16.48</ele><time>2014-05-07T12:11:18Z</time></trkpt><trkpt lat="51.9742564112" lon="-2.2527646367"><ele>16.48</ele><time>2014-05-07T12:11:26Z</time></trkpt><trkpt lat="51.9742200337" lon="-2.2526281793"><ele>16.48</ele><time>2014-05-07T12:11:34Z</time></trkpt><trkpt lat="51.9742077962" lon="-2.2525835875"><ele>16.48</ele><time>2014-05-07T12:11:37Z</time></trkpt><trkpt lat="51.9741860870" lon="-2.2525274288"><ele>16.00</ele><time>2014-05-07T12:11:41Z</time></trkpt><trkpt lat="51.9741308503" lon="-2.2522598784"><ele>15.52</ele><time>2014-05-07T12:11:55Z</time></trkpt><trkpt lat="51.9740830734" lon="-2.2520724591"><ele>16.48</ele><time>2014-05-07T12:12:05Z</time></trkpt><trkpt lat="51.9740462769" lon="-2.2519163880"><ele>16.48</ele><time>2014-05-07T12:12:14Z</time></trkpt><trkpt lat="51.9739936385" lon="-2.2516429704"><ele>16.00</ele><time>2014-05-07T12:12:28Z</time></trkpt><trkpt lat="51.9739698339" lon="-2.2514845524"><ele>16.00</ele><time>2014-05-07T12:12:36Z</time></trkpt><trkpt lat="51.9739298522" lon="-2.2512782738"><ele>15.52</ele><time>2014-05-07T12:12:48Z</time></trkpt><trkpt lat="51.9739156030" lon="-2.2511579935"><ele>16.00</ele><time>2014-05-07T12:12:54Z</time></trkpt><trkpt lat="51.9739031140" lon="-2.2511049360"><ele>16.00</ele><time>2014-05-07T12:12:57Z</time></trkpt><trkpt lat="51.9738866854" lon="-2.2509932891"><ele>16.00</ele><time>2014-05-07T12:13:03Z</time></trkpt><trkpt lat="51.9738486316" lon="-2.2507777065"><ele>16.48</ele><time>2014-05-07T12:13:17Z</time></trkpt><trkpt lat="51.9738498889" lon="-2.2507737670"><ele>16.48</ele><time>2014-05-07T12:13:20Z</time></trkpt><trkpt lat="51.9738395792" lon="-2.2506885231"><ele>16.48</ele><time>2014-05-07T12:13:24Z</time></trkpt><trkpt lat="51.9737924729" lon="-2.2504309472"><ele>15.52</ele><time>2014-05-07T12:13:37Z</time></trkpt><trkpt lat="51.9737822469" lon="-2.2503366508"><ele>15.52</ele><time>2014-05-07T12:13:42Z</time></trkpt><trkpt lat="51.9737552572" lon="-2.2502706014"><ele>15.04</ele><time>2014-05-07T12:13:46Z</time></trkpt><trkpt lat="51.9737261720" lon="-2.2501007002"><ele>15.04</ele><time>2014-05-07T12:13:55Z</time></trkpt><trkpt lat="51.9736587815" lon="-2.2499530111"><ele>15.04</ele><time>2014-05-07T12:14:05Z</time></trkpt><trkpt lat="51.9736282714" lon="-2.2499068268"><ele>15.04</ele><time>2014-05-07T12:14:10Z</time></trkpt><trkpt lat="51.9736036286" lon="-2.2497890610"><ele>15.04</ele><time>2014-05-07T12:14:15Z</time></trkpt><trkpt lat="51.9735383336" lon="-2.2496151365"><ele>15.52</ele><time>2014-05-07T12:14:26Z</time></trkpt><trkpt lat="51.9734545145" lon="-2.2494966164"><ele>16.00</ele><time>2014-05-07T12:14:34Z</time></trkpt><trkpt lat="51.9733648282" lon="-2.2493185010"><ele>15.52</ele><time>2014-05-07T12:14:47Z</time></trkpt><trkpt lat="51.9733570330" lon="-2.2492114641"><ele>16.00</ele><time>2014-05-07T12:14:59Z</time></trkpt><trkpt lat="51.9733593799" lon="-2.2492053453"><ele>15.52</ele><time>2014-05-07T12:15:09Z</time></trkpt></trkseg></trk></gpx>